<?xml version="1.0" encoding="UTF-8" standalone="no" ?>
<gpx xmlns="http://www.topografix.com/GPX/1/1" xmlns:xsi="http://www.w3.org/2001/XMLSchema-instance" xsi:schemaLocation="http://www.topografix.com/GPX/1/1 http://www.topografix.com/GPX/1/1/gpx.xsd" version="1.1" creator="VisuGPX - https://www.visugpx.com">
  <metadata>
    <name>Tour du Capcir (4 jours)</name>
    <desc><![CDATA[Tour du Capcir, en boucle, au départ Des Angles et en 4 jours (12-15 juin 2014), et en bivouac, avec encore pas mal de neige.

L'indice IBP pour l'ensemble de la randonnée est de 268.]]></desc>
  </metadata>
  <trk>
    <name><![CDATA[2014-06-12 Tour-du-Capcir]]></name>
    <desc><![CDATA[(null)]]></desc>
    <trkseg>
      <trkpt lat="42.57737" lon="2.07185">
        <ele>1658</ele>
        <time>2014-06-12T13:13:09Z</time>
      </trkpt>
      <trkpt lat="42.57737" lon="2.07185">
        <ele>1658</ele>
        <time>2014-06-12T13:13:10Z</time>
      </trkpt>
      <trkpt lat="42.57748" lon="2.07246">
        <ele>1658</ele>
        <time>2014-06-12T13:14:11Z</time>
      </trkpt>
      <trkpt lat="42.57723" lon="2.07298">
        <ele>1656</ele>
        <time>2014-06-12T13:15:20Z</time>
      </trkpt>
      <trkpt lat="42.57697" lon="2.07349">
        <ele>1656</ele>
        <time>2014-06-12T13:16:19Z</time>
      </trkpt>
      <trkpt lat="42.57668" lon="2.07397">
        <ele>1657</ele>
        <time>2014-06-12T13:16:54Z</time>
      </trkpt>
      <trkpt lat="42.57691" lon="2.07451">
        <ele>1656</ele>
        <time>2014-06-12T13:17:35Z</time>
      </trkpt>
      <trkpt lat="42.57702" lon="2.07511">
        <ele>1650</ele>
        <time>2014-06-12T13:18:19Z</time>
      </trkpt>
      <trkpt lat="42.57662" lon="2.07539">
        <ele>1648</ele>
        <time>2014-06-12T13:18:58Z</time>
      </trkpt>
      <trkpt lat="42.57686" lon="2.0759">
        <ele>1638</ele>
        <time>2014-06-12T13:20:08Z</time>
      </trkpt>
      <trkpt lat="42.57731" lon="2.07587">
        <ele>1636</ele>
        <time>2014-06-12T13:20:54Z</time>
      </trkpt>
      <trkpt lat="42.5777" lon="2.07618">
        <ele>1636</ele>
        <time>2014-06-12T13:21:40Z</time>
      </trkpt>
      <trkpt lat="42.57798" lon="2.07666">
        <ele>1634</ele>
        <time>2014-06-12T13:22:32Z</time>
      </trkpt>
      <trkpt lat="42.57825" lon="2.07717">
        <ele>1624</ele>
        <time>2014-06-12T13:23:07Z</time>
      </trkpt>
      <trkpt lat="42.57852" lon="2.07767">
        <ele>1621</ele>
        <time>2014-06-12T13:23:45Z</time>
      </trkpt>
      <trkpt lat="42.57889" lon="2.07802">
        <ele>1620</ele>
        <time>2014-06-12T13:24:32Z</time>
      </trkpt>
      <trkpt lat="42.57911" lon="2.07856">
        <ele>1612</ele>
        <time>2014-06-12T13:26:28Z</time>
      </trkpt>
      <trkpt lat="42.57928" lon="2.07913">
        <ele>1610</ele>
        <time>2014-06-12T13:27:37Z</time>
      </trkpt>
      <trkpt lat="42.5791" lon="2.07969">
        <ele>1600</ele>
        <time>2014-06-12T13:28:41Z</time>
      </trkpt>
      <trkpt lat="42.57866" lon="2.07985">
        <ele>1597</ele>
        <time>2014-06-12T13:29:17Z</time>
      </trkpt>
      <trkpt lat="42.57853" lon="2.08044">
        <ele>1593</ele>
        <time>2014-06-12T13:30:01Z</time>
      </trkpt>
      <trkpt lat="42.5784" lon="2.08103">
        <ele>1590</ele>
        <time>2014-06-12T13:33:07Z</time>
      </trkpt>
      <trkpt lat="42.57805" lon="2.08142">
        <ele>1584</ele>
        <time>2014-06-12T13:35:25Z</time>
      </trkpt>
      <trkpt lat="42.57765" lon="2.08172">
        <ele>1580</ele>
        <time>2014-06-12T13:36:00Z</time>
      </trkpt>
      <trkpt lat="42.57732" lon="2.08213">
        <ele>1576</ele>
        <time>2014-06-12T13:36:39Z</time>
      </trkpt>
      <trkpt lat="42.57686" lon="2.08213">
        <ele>1575</ele>
        <time>2014-06-12T13:37:14Z</time>
      </trkpt>
      <trkpt lat="42.57643" lon="2.08193">
        <ele>1573</ele>
        <time>2014-06-12T13:37:50Z</time>
      </trkpt>
      <trkpt lat="42.57603" lon="2.08161">
        <ele>1574</ele>
        <time>2014-06-12T13:38:24Z</time>
      </trkpt>
      <trkpt lat="42.57559" lon="2.08149">
        <ele>1572</ele>
        <time>2014-06-12T13:38:58Z</time>
      </trkpt>
      <trkpt lat="42.57514" lon="2.08147">
        <ele>1571</ele>
        <time>2014-06-12T13:39:33Z</time>
      </trkpt>
      <trkpt lat="42.57469" lon="2.08134">
        <ele>1570</ele>
        <time>2014-06-12T13:40:10Z</time>
      </trkpt>
      <trkpt lat="42.5745" lon="2.0819">
        <ele>1566</ele>
        <time>2014-06-12T13:40:47Z</time>
      </trkpt>
      <trkpt lat="42.57423" lon="2.08239">
        <ele>1564</ele>
        <time>2014-06-12T13:41:21Z</time>
      </trkpt>
      <trkpt lat="42.57378" lon="2.0825">
        <ele>1562</ele>
        <time>2014-06-12T13:41:58Z</time>
      </trkpt>
      <trkpt lat="42.57344" lon="2.08211">
        <ele>1564</ele>
        <time>2014-06-12T13:42:33Z</time>
      </trkpt>
      <trkpt lat="42.573" lon="2.0819">
        <ele>1563</ele>
        <time>2014-06-12T13:43:13Z</time>
      </trkpt>
      <trkpt lat="42.57261" lon="2.08157">
        <ele>1565</ele>
        <time>2014-06-12T13:43:52Z</time>
      </trkpt>
      <trkpt lat="42.57217" lon="2.08165">
        <ele>1565</ele>
        <time>2014-06-12T13:44:41Z</time>
      </trkpt>
      <trkpt lat="42.57181" lon="2.08203">
        <ele>1562</ele>
        <time>2014-06-12T13:45:15Z</time>
      </trkpt>
      <trkpt lat="42.57136" lon="2.08211">
        <ele>1561</ele>
        <time>2014-06-12T13:45:51Z</time>
      </trkpt>
      <trkpt lat="42.57093" lon="2.0823">
        <ele>1560</ele>
        <time>2014-06-12T13:46:24Z</time>
      </trkpt>
      <trkpt lat="42.5705" lon="2.08249">
        <ele>1561</ele>
        <time>2014-06-12T13:47:00Z</time>
      </trkpt>
      <trkpt lat="42.57012" lon="2.08283">
        <ele>1557</ele>
        <time>2014-06-12T13:47:37Z</time>
      </trkpt>
      <trkpt lat="42.56984" lon="2.08334">
        <ele>1555</ele>
        <time>2014-06-12T13:48:34Z</time>
      </trkpt>
      <trkpt lat="42.56954" lon="2.0838">
        <ele>1554</ele>
        <time>2014-06-12T13:49:10Z</time>
      </trkpt>
      <trkpt lat="42.56929" lon="2.08431">
        <ele>1551</ele>
        <time>2014-06-12T13:49:44Z</time>
      </trkpt>
      <trkpt lat="42.56906" lon="2.08482">
        <ele>1550</ele>
        <time>2014-06-12T13:50:20Z</time>
      </trkpt>
      <trkpt lat="42.5689" lon="2.08541">
        <ele>1547</ele>
        <time>2014-06-12T13:50:58Z</time>
      </trkpt>
      <trkpt lat="42.56905" lon="2.086">
        <ele>1546</ele>
        <time>2014-06-12T13:51:41Z</time>
      </trkpt>
      <trkpt lat="42.56944" lon="2.08634">
        <ele>1546</ele>
        <time>2014-06-12T13:52:18Z</time>
      </trkpt>
      <trkpt lat="42.56988" lon="2.08652">
        <ele>1546</ele>
        <time>2014-06-12T13:52:49Z</time>
      </trkpt>
      <trkpt lat="42.57031" lon="2.08674">
        <ele>1545</ele>
        <time>2014-06-12T13:53:24Z</time>
      </trkpt>
      <trkpt lat="42.57074" lon="2.08693">
        <ele>1545</ele>
        <time>2014-06-12T13:54:00Z</time>
      </trkpt>
      <trkpt lat="42.57119" lon="2.08692">
        <ele>1543</ele>
        <time>2014-06-12T13:54:37Z</time>
      </trkpt>
      <trkpt lat="42.57158" lon="2.08656">
        <ele>1544</ele>
        <time>2014-06-12T13:55:12Z</time>
      </trkpt>
      <trkpt lat="42.57202" lon="2.08642">
        <ele>1545</ele>
        <time>2014-06-12T13:55:48Z</time>
      </trkpt>
      <trkpt lat="42.57229" lon="2.0869">
        <ele>1543</ele>
        <time>2014-06-12T13:56:24Z</time>
      </trkpt>
      <trkpt lat="42.57261" lon="2.08736">
        <ele>1544</ele>
        <time>2014-06-12T13:57:01Z</time>
      </trkpt>
      <trkpt lat="42.57294" lon="2.08777">
        <ele>1545</ele>
        <time>2014-06-12T13:57:36Z</time>
      </trkpt>
      <trkpt lat="42.57313" lon="2.08834">
        <ele>1547</ele>
        <time>2014-06-12T13:58:18Z</time>
      </trkpt>
      <trkpt lat="42.57311" lon="2.08895">
        <ele>1545</ele>
        <time>2014-06-12T13:58:54Z</time>
      </trkpt>
      <trkpt lat="42.5731" lon="2.08957">
        <ele>1544</ele>
        <time>2014-06-12T13:59:30Z</time>
      </trkpt>
      <trkpt lat="42.57328" lon="2.09012">
        <ele>1545</ele>
        <time>2014-06-12T14:00:07Z</time>
      </trkpt>
      <trkpt lat="42.57352" lon="2.09064">
        <ele>1547</ele>
        <time>2014-06-12T14:00:44Z</time>
      </trkpt>
      <trkpt lat="42.57373" lon="2.09118">
        <ele>1548</ele>
        <time>2014-06-12T14:01:20Z</time>
      </trkpt>
      <trkpt lat="42.57402" lon="2.09166">
        <ele>1547</ele>
        <time>2014-06-12T14:01:55Z</time>
      </trkpt>
      <trkpt lat="42.57445" lon="2.09189">
        <ele>1547</ele>
        <time>2014-06-12T14:02:30Z</time>
      </trkpt>
      <trkpt lat="42.57485" lon="2.09218">
        <ele>1547</ele>
        <time>2014-06-12T14:03:06Z</time>
      </trkpt>
      <trkpt lat="42.57455" lon="2.09265">
        <ele>1548</ele>
        <time>2014-06-12T14:03:52Z</time>
      </trkpt>
      <trkpt lat="42.57416" lon="2.09297">
        <ele>1544</ele>
        <time>2014-06-12T14:04:29Z</time>
      </trkpt>
      <trkpt lat="42.57377" lon="2.0933">
        <ele>1543</ele>
        <time>2014-06-12T14:05:06Z</time>
      </trkpt>
      <trkpt lat="42.57341" lon="2.09366">
        <ele>1541</ele>
        <time>2014-06-12T14:05:41Z</time>
      </trkpt>
      <trkpt lat="42.57308" lon="2.0941">
        <ele>1539</ele>
        <time>2014-06-12T14:06:20Z</time>
      </trkpt>
      <trkpt lat="42.57267" lon="2.09434">
        <ele>1539</ele>
        <time>2014-06-12T14:06:56Z</time>
      </trkpt>
      <trkpt lat="42.57228" lon="2.09467">
        <ele>1536</ele>
        <time>2014-06-12T14:07:31Z</time>
      </trkpt>
      <trkpt lat="42.57251" lon="2.0952">
        <ele>1541</ele>
        <time>2014-06-12T14:08:13Z</time>
      </trkpt>
      <trkpt lat="42.57281" lon="2.09566">
        <ele>1541</ele>
        <time>2014-06-12T14:08:49Z</time>
      </trkpt>
      <trkpt lat="42.57311" lon="2.09612">
        <ele>1543</ele>
        <time>2014-06-12T14:09:25Z</time>
      </trkpt>
      <trkpt lat="42.5734" lon="2.0966">
        <ele>1546</ele>
        <time>2014-06-12T14:10:02Z</time>
      </trkpt>
      <trkpt lat="42.57354" lon="2.09719">
        <ele>1548</ele>
        <time>2014-06-12T14:10:47Z</time>
      </trkpt>
      <trkpt lat="42.57398" lon="2.09731">
        <ele>1548</ele>
        <time>2014-06-12T14:11:23Z</time>
      </trkpt>
      <trkpt lat="42.57445" lon="2.09732">
        <ele>1551</ele>
        <time>2014-06-12T14:12:07Z</time>
      </trkpt>
      <trkpt lat="42.57483" lon="2.09768">
        <ele>1551</ele>
        <time>2014-06-12T14:12:51Z</time>
      </trkpt>
      <trkpt lat="42.57503" lon="2.09825">
        <ele>1552</ele>
        <time>2014-06-12T14:13:37Z</time>
      </trkpt>
      <trkpt lat="42.57533" lon="2.09873">
        <ele>1552</ele>
        <time>2014-06-12T14:14:19Z</time>
      </trkpt>
      <trkpt lat="42.5755" lon="2.09932">
        <ele>1552</ele>
        <time>2014-06-12T14:15:05Z</time>
      </trkpt>
      <trkpt lat="42.57589" lon="2.09964">
        <ele>1553</ele>
        <time>2014-06-12T14:15:42Z</time>
      </trkpt>
      <trkpt lat="42.5763" lon="2.09992">
        <ele>1553</ele>
        <time>2014-06-12T14:16:21Z</time>
      </trkpt>
      <trkpt lat="42.57667" lon="2.10032">
        <ele>1553</ele>
        <time>2014-06-12T14:17:04Z</time>
      </trkpt>
      <trkpt lat="42.57703" lon="2.10069">
        <ele>1553</ele>
        <time>2014-06-12T14:17:37Z</time>
      </trkpt>
      <trkpt lat="42.57744" lon="2.10096">
        <ele>1553</ele>
        <time>2014-06-12T14:18:15Z</time>
      </trkpt>
      <trkpt lat="42.57786" lon="2.10123">
        <ele>1553</ele>
        <time>2014-06-12T14:18:53Z</time>
      </trkpt>
      <trkpt lat="42.57828" lon="2.10146">
        <ele>1553</ele>
        <time>2014-06-12T14:19:29Z</time>
      </trkpt>
      <trkpt lat="42.57872" lon="2.10164">
        <ele>1553</ele>
        <time>2014-06-12T14:20:04Z</time>
      </trkpt>
      <trkpt lat="42.57908" lon="2.102">
        <ele>1551</ele>
        <time>2014-06-12T14:20:40Z</time>
      </trkpt>
      <trkpt lat="42.57945" lon="2.10237">
        <ele>1550</ele>
        <time>2014-06-12T14:21:22Z</time>
      </trkpt>
      <trkpt lat="42.57979" lon="2.10281">
        <ele>1549</ele>
        <time>2014-06-12T14:22:04Z</time>
      </trkpt>
      <trkpt lat="42.57997" lon="2.10339">
        <ele>1550</ele>
        <time>2014-06-12T14:22:42Z</time>
      </trkpt>
      <trkpt lat="42.58029" lon="2.10383">
        <ele>1551</ele>
        <time>2014-06-12T14:23:20Z</time>
      </trkpt>
      <trkpt lat="42.5806" lon="2.10428">
        <ele>1551</ele>
        <time>2014-06-12T14:23:53Z</time>
      </trkpt>
      <trkpt lat="42.58101" lon="2.10455">
        <ele>1551</ele>
        <time>2014-06-12T14:24:30Z</time>
      </trkpt>
      <trkpt lat="42.58142" lon="2.10483">
        <ele>1552</ele>
        <time>2014-06-12T14:25:17Z</time>
      </trkpt>
      <trkpt lat="42.58165" lon="2.10535">
        <ele>1550</ele>
        <time>2014-06-12T14:25:53Z</time>
      </trkpt>
      <trkpt lat="42.58194" lon="2.10584">
        <ele>1548</ele>
        <time>2014-06-12T14:26:28Z</time>
      </trkpt>
      <trkpt lat="42.5824" lon="2.10586">
        <ele>1550</ele>
        <time>2014-06-12T14:29:15Z</time>
      </trkpt>
      <trkpt lat="42.58285" lon="2.10578">
        <ele>1554</ele>
        <time>2014-06-12T14:30:00Z</time>
      </trkpt>
      <trkpt lat="42.58328" lon="2.10597">
        <ele>1555</ele>
        <time>2014-06-12T14:30:40Z</time>
      </trkpt>
      <trkpt lat="42.58374" lon="2.106">
        <ele>1557</ele>
        <time>2014-06-12T14:31:27Z</time>
      </trkpt>
      <trkpt lat="42.58419" lon="2.10605">
        <ele>1559</ele>
        <time>2014-06-12T14:32:09Z</time>
      </trkpt>
      <trkpt lat="42.58464" lon="2.10608">
        <ele>1558</ele>
        <time>2014-06-12T14:32:46Z</time>
      </trkpt>
      <trkpt lat="42.5851" lon="2.10609">
        <ele>1559</ele>
        <time>2014-06-12T14:33:25Z</time>
      </trkpt>
      <trkpt lat="42.58556" lon="2.10613">
        <ele>1559</ele>
        <time>2014-06-12T14:33:59Z</time>
      </trkpt>
      <trkpt lat="42.58602" lon="2.10614">
        <ele>1560</ele>
        <time>2014-06-12T14:34:37Z</time>
      </trkpt>
      <trkpt lat="42.58647" lon="2.10626">
        <ele>1559</ele>
        <time>2014-06-12T14:35:21Z</time>
      </trkpt>
      <trkpt lat="42.58688" lon="2.10658">
        <ele>1559</ele>
        <time>2014-06-12T14:35:53Z</time>
      </trkpt>
      <trkpt lat="42.58727" lon="2.1069">
        <ele>1555</ele>
        <time>2014-06-12T14:36:38Z</time>
      </trkpt>
      <trkpt lat="42.58741" lon="2.1075">
        <ele>1552</ele>
        <time>2014-06-12T14:37:26Z</time>
      </trkpt>
      <trkpt lat="42.58741" lon="2.10811">
        <ele>1547</ele>
        <time>2014-06-12T14:38:01Z</time>
      </trkpt>
      <trkpt lat="42.58745" lon="2.10872">
        <ele>1544</ele>
        <time>2014-06-12T14:38:51Z</time>
      </trkpt>
      <trkpt lat="42.58763" lon="2.10929">
        <ele>1539</ele>
        <time>2014-06-12T14:39:23Z</time>
      </trkpt>
      <trkpt lat="42.58761" lon="2.10991">
        <ele>1536</ele>
        <time>2014-06-12T14:39:59Z</time>
      </trkpt>
      <trkpt lat="42.58765" lon="2.11053">
        <ele>1533</ele>
        <time>2014-06-12T14:40:36Z</time>
      </trkpt>
      <trkpt lat="42.58746" lon="2.11109">
        <ele>1532</ele>
        <time>2014-06-12T14:41:10Z</time>
      </trkpt>
      <trkpt lat="42.58724" lon="2.11163">
        <ele>1531</ele>
        <time>2014-06-12T14:41:46Z</time>
      </trkpt>
      <trkpt lat="42.5871" lon="2.11222">
        <ele>1529</ele>
        <time>2014-06-12T14:42:18Z</time>
      </trkpt>
      <trkpt lat="42.58705" lon="2.11283">
        <ele>1526</ele>
        <time>2014-06-12T14:43:01Z</time>
      </trkpt>
      <trkpt lat="42.58706" lon="2.11344">
        <ele>1524</ele>
        <time>2014-06-12T14:43:45Z</time>
      </trkpt>
      <trkpt lat="42.5869" lon="2.11401">
        <ele>1522</ele>
        <time>2014-06-12T14:44:26Z</time>
      </trkpt>
      <trkpt lat="42.58669" lon="2.11457">
        <ele>1520</ele>
        <time>2014-06-12T14:45:06Z</time>
      </trkpt>
      <trkpt lat="42.58656" lon="2.11517">
        <ele>1520</ele>
        <time>2014-06-12T14:45:40Z</time>
      </trkpt>
      <trkpt lat="42.58654" lon="2.11578">
        <ele>1517</ele>
        <time>2014-06-12T14:46:27Z</time>
      </trkpt>
      <trkpt lat="42.58667" lon="2.11638">
        <ele>1513</ele>
        <time>2014-06-12T14:47:06Z</time>
      </trkpt>
      <trkpt lat="42.5868" lon="2.11697">
        <ele>1512</ele>
        <time>2014-06-12T14:47:41Z</time>
      </trkpt>
      <trkpt lat="42.58694" lon="2.11757">
        <ele>1509</ele>
        <time>2014-06-12T14:48:15Z</time>
      </trkpt>
      <trkpt lat="42.5874" lon="2.11765">
        <ele>1507</ele>
        <time>2014-06-12T14:50:13Z</time>
      </trkpt>
      <trkpt lat="42.58774" lon="2.11807">
        <ele>1505</ele>
        <time>2014-06-12T14:51:03Z</time>
      </trkpt>
      <trkpt lat="42.58814" lon="2.1184">
        <ele>1498</ele>
        <time>2014-06-12T14:51:47Z</time>
      </trkpt>
      <trkpt lat="42.58832" lon="2.11897">
        <ele>1495</ele>
        <time>2014-06-12T14:52:29Z</time>
      </trkpt>
      <trkpt lat="42.58867" lon="2.11936">
        <ele>1492</ele>
        <time>2014-06-12T14:53:04Z</time>
      </trkpt>
      <trkpt lat="42.58904" lon="2.11974">
        <ele>1491</ele>
        <time>2014-06-12T14:53:45Z</time>
      </trkpt>
      <trkpt lat="42.58936" lon="2.12018">
        <ele>1490</ele>
        <time>2014-06-12T14:54:23Z</time>
      </trkpt>
      <trkpt lat="42.58969" lon="2.12062">
        <ele>1489</ele>
        <time>2014-06-12T14:55:01Z</time>
      </trkpt>
      <trkpt lat="42.59014" lon="2.1207">
        <ele>1489</ele>
        <time>2014-06-12T14:55:38Z</time>
      </trkpt>
      <trkpt lat="42.5906" lon="2.12064">
        <ele>1490</ele>
        <time>2014-06-12T14:56:15Z</time>
      </trkpt>
      <trkpt lat="42.59103" lon="2.12085">
        <ele>1485</ele>
        <time>2014-06-12T14:56:52Z</time>
      </trkpt>
      <trkpt lat="42.59143" lon="2.12112">
        <ele>1486</ele>
        <time>2014-06-12T14:57:28Z</time>
      </trkpt>
      <trkpt lat="42.5917" lon="2.12162">
        <ele>1486</ele>
        <time>2014-06-12T14:58:01Z</time>
      </trkpt>
      <trkpt lat="42.5919" lon="2.12218">
        <ele>1485</ele>
        <time>2014-06-12T14:58:38Z</time>
      </trkpt>
      <trkpt lat="42.5923" lon="2.12249">
        <ele>1484</ele>
        <time>2014-06-12T14:59:15Z</time>
      </trkpt>
      <trkpt lat="42.59274" lon="2.12267">
        <ele>1480</ele>
        <time>2014-06-12T14:59:44Z</time>
      </trkpt>
      <trkpt lat="42.59249" lon="2.12319">
        <ele>1480</ele>
        <time>2014-06-12T15:00:25Z</time>
      </trkpt>
      <trkpt lat="42.59279" lon="2.12366">
        <ele>1482</ele>
        <time>2014-06-12T15:01:33Z</time>
      </trkpt>
      <trkpt lat="42.59324" lon="2.12383">
        <ele>1482</ele>
        <time>2014-06-12T15:02:15Z</time>
      </trkpt>
      <trkpt lat="42.59365" lon="2.12411">
        <ele>1480</ele>
        <time>2014-06-12T15:02:53Z</time>
      </trkpt>
      <trkpt lat="42.59406" lon="2.12441">
        <ele>1488</ele>
        <time>2014-06-12T15:03:31Z</time>
      </trkpt>
      <trkpt lat="42.59439" lon="2.12483">
        <ele>1489</ele>
        <time>2014-06-12T15:04:08Z</time>
      </trkpt>
      <trkpt lat="42.59481" lon="2.12505">
        <ele>1498</ele>
        <time>2014-06-12T15:04:55Z</time>
      </trkpt>
      <trkpt lat="42.59526" lon="2.12519">
        <ele>1495</ele>
        <time>2014-06-12T15:05:23Z</time>
      </trkpt>
      <trkpt lat="42.59573" lon="2.12525">
        <ele>1493</ele>
        <time>2014-06-12T15:05:59Z</time>
      </trkpt>
      <trkpt lat="42.59613" lon="2.12552">
        <ele>1490</ele>
        <time>2014-06-12T15:06:38Z</time>
      </trkpt>
      <trkpt lat="42.59653" lon="2.12582">
        <ele>1490</ele>
        <time>2014-06-12T15:07:15Z</time>
      </trkpt>
      <trkpt lat="42.59688" lon="2.12621">
        <ele>1496</ele>
        <time>2014-06-12T15:07:52Z</time>
      </trkpt>
      <trkpt lat="42.59725" lon="2.12655">
        <ele>1497</ele>
        <time>2014-06-12T15:08:29Z</time>
      </trkpt>
      <trkpt lat="42.59759" lon="2.12698">
        <ele>1505</ele>
        <time>2014-06-12T15:09:22Z</time>
      </trkpt>
      <trkpt lat="42.59795" lon="2.12736">
        <ele>1508</ele>
        <time>2014-06-12T15:10:02Z</time>
      </trkpt>
      <trkpt lat="42.59834" lon="2.12769">
        <ele>1516</ele>
        <time>2014-06-12T15:10:41Z</time>
      </trkpt>
      <trkpt lat="42.59879" lon="2.12782">
        <ele>1517</ele>
        <time>2014-06-12T15:11:37Z</time>
      </trkpt>
      <trkpt lat="42.59923" lon="2.12802">
        <ele>1513</ele>
        <time>2014-06-12T15:12:07Z</time>
      </trkpt>
      <trkpt lat="42.59969" lon="2.12813">
        <ele>1512</ele>
        <time>2014-06-12T15:12:42Z</time>
      </trkpt>
      <trkpt lat="42.60014" lon="2.1282">
        <ele>1509</ele>
        <time>2014-06-12T15:13:10Z</time>
      </trkpt>
      <trkpt lat="42.6006" lon="2.12834">
        <ele>1519</ele>
        <time>2014-06-12T15:13:54Z</time>
      </trkpt>
      <trkpt lat="42.60105" lon="2.12848">
        <ele>1514</ele>
        <time>2014-06-12T15:14:24Z</time>
      </trkpt>
      <trkpt lat="42.6015" lon="2.1287">
        <ele>1514</ele>
        <time>2014-06-12T15:15:18Z</time>
      </trkpt>
      <trkpt lat="42.60193" lon="2.12894">
        <ele>1507</ele>
        <time>2014-06-12T15:16:03Z</time>
      </trkpt>
      <trkpt lat="42.60236" lon="2.12919">
        <ele>1514</ele>
        <time>2014-06-12T15:16:28Z</time>
      </trkpt>
      <trkpt lat="42.6028" lon="2.12948">
        <ele>1505</ele>
        <time>2014-06-12T15:17:23Z</time>
      </trkpt>
      <trkpt lat="42.60326" lon="2.12972">
        <ele>1503</ele>
        <time>2014-06-12T15:17:49Z</time>
      </trkpt>
      <trkpt lat="42.60366" lon="2.13002">
        <ele>1503</ele>
        <time>2014-06-12T15:18:19Z</time>
      </trkpt>
      <trkpt lat="42.60406" lon="2.1303">
        <ele>1501</ele>
        <time>2014-06-12T15:19:05Z</time>
      </trkpt>
      <trkpt lat="42.60442" lon="2.13068">
        <ele>1497</ele>
        <time>2014-06-12T15:19:40Z</time>
      </trkpt>
      <trkpt lat="42.60485" lon="2.13125">
        <ele>1511</ele>
        <time>2014-06-12T15:21:08Z</time>
      </trkpt>
      <trkpt lat="42.60485" lon="2.13125">
        <ele>1511</ele>
        <time>2014-06-12T15:21:09Z</time>
      </trkpt>
      <trkpt lat="42.60522" lon="2.13159">
        <ele>1509</ele>
        <time>2014-06-12T15:21:18Z</time>
      </trkpt>
      <trkpt lat="42.60569" lon="2.13181">
        <ele>1524</ele>
        <time>2014-06-12T15:22:20Z</time>
      </trkpt>
      <trkpt lat="42.60617" lon="2.13182">
        <ele>1528</ele>
        <time>2014-06-12T15:23:09Z</time>
      </trkpt>
      <trkpt lat="42.60663" lon="2.13194">
        <ele>1530</ele>
        <time>2014-06-12T15:24:02Z</time>
      </trkpt>
      <trkpt lat="42.60708" lon="2.13188">
        <ele>1538</ele>
        <time>2014-06-12T15:24:51Z</time>
      </trkpt>
      <trkpt lat="42.60758" lon="2.13177">
        <ele>1536</ele>
        <time>2014-06-12T15:25:39Z</time>
      </trkpt>
      <trkpt lat="42.60833" lon="2.13201">
        <ele>1542</ele>
        <time>2014-06-12T15:37:40Z</time>
      </trkpt>
      <trkpt lat="42.60831" lon="2.1325">
        <ele>1557</ele>
        <time>2014-06-12T15:38:49Z</time>
      </trkpt>
      <trkpt lat="42.60831" lon="2.1325">
        <ele>1557</ele>
        <time>2014-06-12T15:38:49Z</time>
      </trkpt>
      <trkpt lat="42.60831" lon="2.1325">
        <ele>1557</ele>
        <time>2014-06-12T15:38:50Z</time>
      </trkpt>
      <trkpt lat="42.60786" lon="2.13235">
        <ele>1550</ele>
        <time>2014-06-12T15:39:39Z</time>
      </trkpt>
      <trkpt lat="42.60741" lon="2.13248">
        <ele>1558</ele>
        <time>2014-06-12T15:40:44Z</time>
      </trkpt>
      <trkpt lat="42.60778" lon="2.13286">
        <ele>1575</ele>
        <time>2014-06-12T15:42:27Z</time>
      </trkpt>
      <trkpt lat="42.60815" lon="2.13322">
        <ele>1580</ele>
        <time>2014-06-12T15:43:22Z</time>
      </trkpt>
      <trkpt lat="42.60838" lon="2.13375">
        <ele>1591</ele>
        <time>2014-06-12T15:44:10Z</time>
      </trkpt>
      <trkpt lat="42.60854" lon="2.13433">
        <ele>1608</ele>
        <time>2014-06-12T15:45:03Z</time>
      </trkpt>
      <trkpt lat="42.60824" lon="2.13387">
        <ele>1600</ele>
        <time>2014-06-12T15:47:04Z</time>
      </trkpt>
      <trkpt lat="42.60779" lon="2.13381">
        <ele>1602</ele>
        <time>2014-06-12T15:47:56Z</time>
      </trkpt>
      <trkpt lat="42.60732" lon="2.13382">
        <ele>1606</ele>
        <time>2014-06-12T15:48:52Z</time>
      </trkpt>
      <trkpt lat="42.6069" lon="2.13403">
        <ele>1610</ele>
        <time>2014-06-12T15:49:59Z</time>
      </trkpt>
      <trkpt lat="42.60732" lon="2.13427">
        <ele>1627</ele>
        <time>2014-06-12T15:52:06Z</time>
      </trkpt>
      <trkpt lat="42.60777" lon="2.13439">
        <ele>1621</ele>
        <time>2014-06-12T15:52:51Z</time>
      </trkpt>
      <trkpt lat="42.60821" lon="2.13461">
        <ele>1620</ele>
        <time>2014-06-12T15:53:32Z</time>
      </trkpt>
      <trkpt lat="42.60856" lon="2.135">
        <ele>1616</ele>
        <time>2014-06-12T15:54:10Z</time>
      </trkpt>
      <trkpt lat="42.609" lon="2.1352">
        <ele>1625</ele>
        <time>2014-06-12T15:54:58Z</time>
      </trkpt>
      <trkpt lat="42.6094" lon="2.1355">
        <ele>1627</ele>
        <time>2014-06-12T15:55:36Z</time>
      </trkpt>
      <trkpt lat="42.60972" lon="2.13506">
        <ele>1624</ele>
        <time>2014-06-12T15:56:40Z</time>
      </trkpt>
      <trkpt lat="42.61019" lon="2.13521">
        <ele>1624</ele>
        <time>2014-06-12T15:57:20Z</time>
      </trkpt>
      <trkpt lat="42.61064" lon="2.13531">
        <ele>1622</ele>
        <time>2014-06-12T15:58:06Z</time>
      </trkpt>
      <trkpt lat="42.61109" lon="2.13536">
        <ele>1612</ele>
        <time>2014-06-12T15:58:44Z</time>
      </trkpt>
      <trkpt lat="42.61138" lon="2.13584">
        <ele>1619</ele>
        <time>2014-06-12T15:59:28Z</time>
      </trkpt>
      <trkpt lat="42.61158" lon="2.13639">
        <ele>1622</ele>
        <time>2014-06-12T16:00:14Z</time>
      </trkpt>
      <trkpt lat="42.61184" lon="2.1369">
        <ele>1626</ele>
        <time>2014-06-12T16:01:00Z</time>
      </trkpt>
      <trkpt lat="42.61216" lon="2.13734">
        <ele>1633</ele>
        <time>2014-06-12T16:01:47Z</time>
      </trkpt>
      <trkpt lat="42.61255" lon="2.13766">
        <ele>1652</ele>
        <time>2014-06-12T16:02:43Z</time>
      </trkpt>
      <trkpt lat="42.61303" lon="2.13758">
        <ele>1660</ele>
        <time>2014-06-12T16:03:31Z</time>
      </trkpt>
      <trkpt lat="42.61344" lon="2.13732">
        <ele>1647</ele>
        <time>2014-06-12T16:04:11Z</time>
      </trkpt>
      <trkpt lat="42.61387" lon="2.13711">
        <ele>1641</ele>
        <time>2014-06-12T16:04:58Z</time>
      </trkpt>
      <trkpt lat="42.61429" lon="2.13732">
        <ele>1640</ele>
        <time>2014-06-12T16:05:52Z</time>
      </trkpt>
      <trkpt lat="42.61445" lon="2.1379">
        <ele>1663</ele>
        <time>2014-06-12T16:06:35Z</time>
      </trkpt>
      <trkpt lat="42.61465" lon="2.13845">
        <ele>1686</ele>
        <time>2014-06-12T16:07:25Z</time>
      </trkpt>
      <trkpt lat="42.61479" lon="2.13906">
        <ele>1694</ele>
        <time>2014-06-12T16:08:12Z</time>
      </trkpt>
      <trkpt lat="42.61486" lon="2.13972">
        <ele>1716</ele>
        <time>2014-06-12T16:08:55Z</time>
      </trkpt>
      <trkpt lat="42.6149" lon="2.14033">
        <ele>1731</ele>
        <time>2014-06-12T16:09:36Z</time>
      </trkpt>
      <trkpt lat="42.61492" lon="2.14094">
        <ele>1735</ele>
        <time>2014-06-12T16:10:22Z</time>
      </trkpt>
      <trkpt lat="42.61486" lon="2.14157">
        <ele>1745</ele>
        <time>2014-06-12T16:11:05Z</time>
      </trkpt>
      <trkpt lat="42.61519" lon="2.14199">
        <ele>1739</ele>
        <time>2014-06-12T16:12:08Z</time>
      </trkpt>
      <trkpt lat="42.61565" lon="2.14187">
        <ele>1730</ele>
        <time>2014-06-12T16:12:59Z</time>
      </trkpt>
      <trkpt lat="42.61612" lon="2.14175">
        <ele>1724</ele>
        <time>2014-06-12T16:13:55Z</time>
      </trkpt>
      <trkpt lat="42.61655" lon="2.14152">
        <ele>1705</ele>
        <time>2014-06-12T16:14:39Z</time>
      </trkpt>
      <trkpt lat="42.61692" lon="2.14186">
        <ele>1724</ele>
        <time>2014-06-12T16:15:23Z</time>
      </trkpt>
      <trkpt lat="42.61707" lon="2.14245">
        <ele>1733</ele>
        <time>2014-06-12T16:16:09Z</time>
      </trkpt>
      <trkpt lat="42.61717" lon="2.14305">
        <ele>1750</ele>
        <time>2014-06-12T16:16:52Z</time>
      </trkpt>
      <trkpt lat="42.61722" lon="2.14366">
        <ele>1761</ele>
        <time>2014-06-12T16:17:35Z</time>
      </trkpt>
      <trkpt lat="42.61726" lon="2.14427">
        <ele>1766</ele>
        <time>2014-06-12T16:18:20Z</time>
      </trkpt>
      <trkpt lat="42.61726" lon="2.14488">
        <ele>1772</ele>
        <time>2014-06-12T16:19:02Z</time>
      </trkpt>
      <trkpt lat="42.61772" lon="2.14489">
        <ele>1749</ele>
        <time>2014-06-12T16:20:10Z</time>
      </trkpt>
      <trkpt lat="42.61817" lon="2.14472">
        <ele>1745</ele>
        <time>2014-06-12T16:20:57Z</time>
      </trkpt>
      <trkpt lat="42.61861" lon="2.14448">
        <ele>1745</ele>
        <time>2014-06-12T16:21:21Z</time>
      </trkpt>
      <trkpt lat="42.6189" lon="2.14398">
        <ele>1720</ele>
        <time>2014-06-12T16:21:53Z</time>
      </trkpt>
      <trkpt lat="42.61933" lon="2.14379">
        <ele>1733</ele>
        <time>2014-06-12T16:22:40Z</time>
      </trkpt>
      <trkpt lat="42.61979" lon="2.14369">
        <ele>1738</ele>
        <time>2014-06-12T16:23:43Z</time>
      </trkpt>
      <trkpt lat="42.62012" lon="2.14326">
        <ele>1728</ele>
        <time>2014-06-12T16:24:13Z</time>
      </trkpt>
      <trkpt lat="42.62059" lon="2.14325">
        <ele>1736</ele>
        <time>2014-06-12T16:25:00Z</time>
      </trkpt>
      <trkpt lat="42.62106" lon="2.14319">
        <ele>1744</ele>
        <time>2014-06-12T16:25:24Z</time>
      </trkpt>
      <trkpt lat="42.62151" lon="2.1432">
        <ele>1744</ele>
        <time>2014-06-12T16:25:52Z</time>
      </trkpt>
      <trkpt lat="42.62194" lon="2.1434">
        <ele>1747</ele>
        <time>2014-06-12T16:26:32Z</time>
      </trkpt>
      <trkpt lat="42.62216" lon="2.14395">
        <ele>1747</ele>
        <time>2014-06-12T16:27:20Z</time>
      </trkpt>
      <trkpt lat="42.62234" lon="2.14452">
        <ele>1761</ele>
        <time>2014-06-12T16:28:03Z</time>
      </trkpt>
      <trkpt lat="42.62258" lon="2.14503">
        <ele>1760</ele>
        <time>2014-06-12T16:28:47Z</time>
      </trkpt>
      <trkpt lat="42.6228" lon="2.14557">
        <ele>1759</ele>
        <time>2014-06-12T16:29:33Z</time>
      </trkpt>
      <trkpt lat="42.62288" lon="2.14618">
        <ele>1766</ele>
        <time>2014-06-12T16:30:21Z</time>
      </trkpt>
      <trkpt lat="42.62288" lon="2.14681">
        <ele>1773</ele>
        <time>2014-06-12T16:31:10Z</time>
      </trkpt>
      <trkpt lat="42.62285" lon="2.14743">
        <ele>1776</ele>
        <time>2014-06-12T16:31:55Z</time>
      </trkpt>
      <trkpt lat="42.6228" lon="2.14804">
        <ele>1781</ele>
        <time>2014-06-12T16:32:50Z</time>
      </trkpt>
      <trkpt lat="42.62282" lon="2.14866">
        <ele>1784</ele>
        <time>2014-06-12T16:33:31Z</time>
      </trkpt>
      <trkpt lat="42.62252" lon="2.14904">
        <ele>1783</ele>
        <time>2014-06-13T07:26:34Z</time>
      </trkpt>
      <trkpt lat="42.62252" lon="2.14904">
        <ele>1783</ele>
        <time>2014-06-13T07:26:34Z</time>
      </trkpt>
      <trkpt lat="42.62252" lon="2.14904">
        <ele>1783</ele>
        <time>2014-06-13T07:26:34Z</time>
      </trkpt>
      <trkpt lat="42.62286" lon="2.14892">
        <ele>1784</ele>
        <time>2014-06-13T07:27:10Z</time>
      </trkpt>
      <trkpt lat="42.62286" lon="2.14892">
        <ele>1784</ele>
        <time>2014-06-13T07:27:10Z</time>
      </trkpt>
      <trkpt lat="42.62286" lon="2.14892">
        <ele>1784</ele>
        <time>2014-06-13T07:27:10Z</time>
      </trkpt>
      <trkpt lat="42.62326" lon="2.14864">
        <ele>1784</ele>
        <time>2014-06-13T07:27:51Z</time>
      </trkpt>
      <trkpt lat="42.6237" lon="2.14881">
        <ele>1793</ele>
        <time>2014-06-13T07:28:40Z</time>
      </trkpt>
      <trkpt lat="42.62374" lon="2.14942">
        <ele>1798</ele>
        <time>2014-06-13T07:29:25Z</time>
      </trkpt>
      <trkpt lat="42.62373" lon="2.15003">
        <ele>1803</ele>
        <time>2014-06-13T07:30:14Z</time>
      </trkpt>
      <trkpt lat="42.62374" lon="2.15065">
        <ele>1806</ele>
        <time>2014-06-13T07:31:01Z</time>
      </trkpt>
      <trkpt lat="42.62364" lon="2.15125">
        <ele>1809</ele>
        <time>2014-06-13T07:31:50Z</time>
      </trkpt>
      <trkpt lat="42.62373" lon="2.15186">
        <ele>1814</ele>
        <time>2014-06-13T07:32:36Z</time>
      </trkpt>
      <trkpt lat="42.62395" lon="2.15132">
        <ele>1814</ele>
        <time>2014-06-13T07:33:24Z</time>
      </trkpt>
      <trkpt lat="42.62426" lon="2.15087">
        <ele>1825</ele>
        <time>2014-06-13T07:34:16Z</time>
      </trkpt>
      <trkpt lat="42.62464" lon="2.15053">
        <ele>1826</ele>
        <time>2014-06-13T07:34:57Z</time>
      </trkpt>
      <trkpt lat="42.62502" lon="2.15019">
        <ele>1836</ele>
        <time>2014-06-13T07:35:45Z</time>
      </trkpt>
      <trkpt lat="42.6254" lon="2.14986">
        <ele>1831</ele>
        <time>2014-06-13T07:36:31Z</time>
      </trkpt>
      <trkpt lat="42.62582" lon="2.14963">
        <ele>1833</ele>
        <time>2014-06-13T07:37:14Z</time>
      </trkpt>
      <trkpt lat="42.62625" lon="2.14944">
        <ele>1846</ele>
        <time>2014-06-13T07:37:59Z</time>
      </trkpt>
      <trkpt lat="42.62668" lon="2.14925">
        <ele>1851</ele>
        <time>2014-06-13T07:38:43Z</time>
      </trkpt>
      <trkpt lat="42.6271" lon="2.14902">
        <ele>1848</ele>
        <time>2014-06-13T07:39:29Z</time>
      </trkpt>
      <trkpt lat="42.62748" lon="2.14869">
        <ele>1848</ele>
        <time>2014-06-13T07:40:09Z</time>
      </trkpt>
      <trkpt lat="42.62786" lon="2.14832">
        <ele>1848</ele>
        <time>2014-06-13T07:40:48Z</time>
      </trkpt>
      <trkpt lat="42.62822" lon="2.14795">
        <ele>1849</ele>
        <time>2014-06-13T07:41:28Z</time>
      </trkpt>
      <trkpt lat="42.62862" lon="2.14766">
        <ele>1854</ele>
        <time>2014-06-13T07:42:10Z</time>
      </trkpt>
      <trkpt lat="42.62907" lon="2.14774">
        <ele>1856</ele>
        <time>2014-06-13T07:43:19Z</time>
      </trkpt>
      <trkpt lat="42.62941" lon="2.14815">
        <ele>1855</ele>
        <time>2014-06-13T07:43:57Z</time>
      </trkpt>
      <trkpt lat="42.62964" lon="2.14868">
        <ele>1867</ele>
        <time>2014-06-13T07:44:37Z</time>
      </trkpt>
      <trkpt lat="42.62979" lon="2.14926">
        <ele>1876</ele>
        <time>2014-06-13T07:45:16Z</time>
      </trkpt>
      <trkpt lat="42.62992" lon="2.14984">
        <ele>1882</ele>
        <time>2014-06-13T07:45:53Z</time>
      </trkpt>
      <trkpt lat="42.63031" lon="2.15017">
        <ele>1884</ele>
        <time>2014-06-13T07:46:34Z</time>
      </trkpt>
      <trkpt lat="42.63075" lon="2.15">
        <ele>1870</ele>
        <time>2014-06-13T07:47:11Z</time>
      </trkpt>
      <trkpt lat="42.63119" lon="2.14983">
        <ele>1863</ele>
        <time>2014-06-13T07:47:49Z</time>
      </trkpt>
      <trkpt lat="42.63164" lon="2.14993">
        <ele>1867</ele>
        <time>2014-06-13T07:52:57Z</time>
      </trkpt>
      <trkpt lat="42.63207" lon="2.15018">
        <ele>1873</ele>
        <time>2014-06-13T07:53:34Z</time>
      </trkpt>
      <trkpt lat="42.63247" lon="2.15047">
        <ele>1874</ele>
        <time>2014-06-13T07:54:11Z</time>
      </trkpt>
      <trkpt lat="42.6329" lon="2.15067">
        <ele>1871</ele>
        <time>2014-06-13T07:54:47Z</time>
      </trkpt>
      <trkpt lat="42.63336" lon="2.15073">
        <ele>1877</ele>
        <time>2014-06-13T07:56:10Z</time>
      </trkpt>
      <trkpt lat="42.63373" lon="2.15038">
        <ele>1872</ele>
        <time>2014-06-13T07:56:43Z</time>
      </trkpt>
      <trkpt lat="42.63414" lon="2.15012">
        <ele>1869</ele>
        <time>2014-06-13T07:57:17Z</time>
      </trkpt>
      <trkpt lat="42.63457" lon="2.14989">
        <ele>1865</ele>
        <time>2014-06-13T07:57:52Z</time>
      </trkpt>
      <trkpt lat="42.63499" lon="2.14968">
        <ele>1867</ele>
        <time>2014-06-13T07:58:27Z</time>
      </trkpt>
      <trkpt lat="42.63544" lon="2.1495">
        <ele>1873</ele>
        <time>2014-06-13T07:59:03Z</time>
      </trkpt>
      <trkpt lat="42.63589" lon="2.14948">
        <ele>1871</ele>
        <time>2014-06-13T07:59:39Z</time>
      </trkpt>
      <trkpt lat="42.63631" lon="2.14975">
        <ele>1872</ele>
        <time>2014-06-13T08:00:15Z</time>
      </trkpt>
      <trkpt lat="42.63668" lon="2.15011">
        <ele>1876</ele>
        <time>2014-06-13T08:00:53Z</time>
      </trkpt>
      <trkpt lat="42.6371" lon="2.15033">
        <ele>1879</ele>
        <time>2014-06-13T08:01:24Z</time>
      </trkpt>
      <trkpt lat="42.63756" lon="2.15039">
        <ele>1875</ele>
        <time>2014-06-13T08:02:14Z</time>
      </trkpt>
      <trkpt lat="42.63801" lon="2.15027">
        <ele>1873</ele>
        <time>2014-06-13T08:02:49Z</time>
      </trkpt>
      <trkpt lat="42.63845" lon="2.15019">
        <ele>1869</ele>
        <time>2014-06-13T08:03:25Z</time>
      </trkpt>
      <trkpt lat="42.6388" lon="2.15057">
        <ele>1873</ele>
        <time>2014-06-13T08:04:04Z</time>
      </trkpt>
      <trkpt lat="42.63926" lon="2.1506">
        <ele>1868</ele>
        <time>2014-06-13T08:04:46Z</time>
      </trkpt>
      <trkpt lat="42.63965" lon="2.15089">
        <ele>1877</ele>
        <time>2014-06-13T08:05:23Z</time>
      </trkpt>
      <trkpt lat="42.64011" lon="2.15092">
        <ele>1870</ele>
        <time>2014-06-13T08:05:56Z</time>
      </trkpt>
      <trkpt lat="42.64055" lon="2.151">
        <ele>1871</ele>
        <time>2014-06-13T08:06:41Z</time>
      </trkpt>
      <trkpt lat="42.641" lon="2.15091">
        <ele>1867</ele>
        <time>2014-06-13T08:07:16Z</time>
      </trkpt>
      <trkpt lat="42.64145" lon="2.15087">
        <ele>1870</ele>
        <time>2014-06-13T08:07:52Z</time>
      </trkpt>
      <trkpt lat="42.64191" lon="2.15083">
        <ele>1858</ele>
        <time>2014-06-13T08:08:31Z</time>
      </trkpt>
      <trkpt lat="42.64235" lon="2.15071">
        <ele>1861</ele>
        <time>2014-06-13T08:09:14Z</time>
      </trkpt>
      <trkpt lat="42.6428" lon="2.15059">
        <ele>1869</ele>
        <time>2014-06-13T08:09:52Z</time>
      </trkpt>
      <trkpt lat="42.6432" lon="2.15027">
        <ele>1869</ele>
        <time>2014-06-13T08:10:35Z</time>
      </trkpt>
      <trkpt lat="42.64362" lon="2.15003">
        <ele>1875</ele>
        <time>2014-06-13T08:11:42Z</time>
      </trkpt>
      <trkpt lat="42.64399" lon="2.15039">
        <ele>1880</ele>
        <time>2014-06-13T08:12:27Z</time>
      </trkpt>
      <trkpt lat="42.6443" lon="2.15084">
        <ele>1894</ele>
        <time>2014-06-13T08:13:11Z</time>
      </trkpt>
      <trkpt lat="42.64474" lon="2.15102">
        <ele>1891</ele>
        <time>2014-06-13T08:13:55Z</time>
      </trkpt>
      <trkpt lat="42.64498" lon="2.15154">
        <ele>1894</ele>
        <time>2014-06-13T08:14:41Z</time>
      </trkpt>
      <trkpt lat="42.64497" lon="2.15215">
        <ele>1905</ele>
        <time>2014-06-13T08:15:23Z</time>
      </trkpt>
      <trkpt lat="42.64472" lon="2.15268">
        <ele>1915</ele>
        <time>2014-06-13T08:18:39Z</time>
      </trkpt>
      <trkpt lat="42.64486" lon="2.15326">
        <ele>1917</ele>
        <time>2014-06-13T08:19:23Z</time>
      </trkpt>
      <trkpt lat="42.64503" lon="2.15383">
        <ele>1925</ele>
        <time>2014-06-13T08:20:07Z</time>
      </trkpt>
      <trkpt lat="42.64548" lon="2.15389">
        <ele>1926</ele>
        <time>2014-06-13T08:29:13Z</time>
      </trkpt>
      <trkpt lat="42.64592" lon="2.15366">
        <ele>1931</ele>
        <time>2014-06-13T08:29:59Z</time>
      </trkpt>
      <trkpt lat="42.64631" lon="2.15337">
        <ele>1932</ele>
        <time>2014-06-13T08:30:39Z</time>
      </trkpt>
      <trkpt lat="42.64677" lon="2.15332">
        <ele>1926</ele>
        <time>2014-06-13T08:31:23Z</time>
      </trkpt>
      <trkpt lat="42.64722" lon="2.15339">
        <ele>1940</ele>
        <time>2014-06-13T08:32:08Z</time>
      </trkpt>
      <trkpt lat="42.64767" lon="2.15354">
        <ele>1935</ele>
        <time>2014-06-13T08:32:49Z</time>
      </trkpt>
      <trkpt lat="42.64806" lon="2.15385">
        <ele>1935</ele>
        <time>2014-06-13T08:33:37Z</time>
      </trkpt>
      <trkpt lat="42.64798" lon="2.15446">
        <ele>1946</ele>
        <time>2014-06-13T08:34:15Z</time>
      </trkpt>
      <trkpt lat="42.64794" lon="2.15508">
        <ele>1952</ele>
        <time>2014-06-13T08:34:52Z</time>
      </trkpt>
      <trkpt lat="42.64788" lon="2.15569">
        <ele>1954</ele>
        <time>2014-06-13T08:35:44Z</time>
      </trkpt>
      <trkpt lat="42.64796" lon="2.15629">
        <ele>1955</ele>
        <time>2014-06-13T08:36:22Z</time>
      </trkpt>
      <trkpt lat="42.64792" lon="2.1569">
        <ele>1960</ele>
        <time>2014-06-13T08:37:03Z</time>
      </trkpt>
      <trkpt lat="42.6479" lon="2.15753">
        <ele>1967</ele>
        <time>2014-06-13T08:37:42Z</time>
      </trkpt>
      <trkpt lat="42.64835" lon="2.15766">
        <ele>1960</ele>
        <time>2014-06-13T08:38:32Z</time>
      </trkpt>
      <trkpt lat="42.64878" lon="2.15746">
        <ele>1949</ele>
        <time>2014-06-13T08:39:08Z</time>
      </trkpt>
      <trkpt lat="42.64918" lon="2.15718">
        <ele>1945</ele>
        <time>2014-06-13T08:39:43Z</time>
      </trkpt>
      <trkpt lat="42.64963" lon="2.15709">
        <ele>1942</ele>
        <time>2014-06-13T08:40:21Z</time>
      </trkpt>
      <trkpt lat="42.65003" lon="2.15739">
        <ele>1945</ele>
        <time>2014-06-13T08:41:10Z</time>
      </trkpt>
      <trkpt lat="42.65039" lon="2.15779">
        <ele>1948</ele>
        <time>2014-06-13T08:41:47Z</time>
      </trkpt>
      <trkpt lat="42.65055" lon="2.15837">
        <ele>1954</ele>
        <time>2014-06-13T08:42:22Z</time>
      </trkpt>
      <trkpt lat="42.65063" lon="2.15897">
        <ele>1953</ele>
        <time>2014-06-13T08:42:56Z</time>
      </trkpt>
      <trkpt lat="42.65072" lon="2.15958">
        <ele>1960</ele>
        <time>2014-06-13T08:43:31Z</time>
      </trkpt>
      <trkpt lat="42.65087" lon="2.16016">
        <ele>1947</ele>
        <time>2014-06-13T08:44:08Z</time>
      </trkpt>
      <trkpt lat="42.65111" lon="2.16067">
        <ele>1948</ele>
        <time>2014-06-13T08:44:44Z</time>
      </trkpt>
      <trkpt lat="42.65148" lon="2.16103">
        <ele>1956</ele>
        <time>2014-06-13T08:45:20Z</time>
      </trkpt>
      <trkpt lat="42.6519" lon="2.16129">
        <ele>1949</ele>
        <time>2014-06-13T08:45:55Z</time>
      </trkpt>
      <trkpt lat="42.65233" lon="2.16147">
        <ele>1950</ele>
        <time>2014-06-13T08:46:33Z</time>
      </trkpt>
      <trkpt lat="42.65278" lon="2.16154">
        <ele>1935</ele>
        <time>2014-06-13T08:47:15Z</time>
      </trkpt>
      <trkpt lat="42.65279" lon="2.16216">
        <ele>1949</ele>
        <time>2014-06-13T08:47:56Z</time>
      </trkpt>
      <trkpt lat="42.65261" lon="2.16272">
        <ele>1967</ele>
        <time>2014-06-13T08:48:39Z</time>
      </trkpt>
      <trkpt lat="42.65264" lon="2.16333">
        <ele>1982</ele>
        <time>2014-06-13T08:49:24Z</time>
      </trkpt>
      <trkpt lat="42.65271" lon="2.16394">
        <ele>1988</ele>
        <time>2014-06-13T08:51:46Z</time>
      </trkpt>
      <trkpt lat="42.65314" lon="2.16374">
        <ele>1981</ele>
        <time>2014-06-13T08:52:31Z</time>
      </trkpt>
      <trkpt lat="42.65359" lon="2.16361">
        <ele>1977</ele>
        <time>2014-06-13T08:53:17Z</time>
      </trkpt>
      <trkpt lat="42.65403" lon="2.16343">
        <ele>1977</ele>
        <time>2014-06-13T08:54:00Z</time>
      </trkpt>
      <trkpt lat="42.65449" lon="2.16344">
        <ele>1996</ele>
        <time>2014-06-13T08:54:51Z</time>
      </trkpt>
      <trkpt lat="42.65475" lon="2.16293">
        <ele>1972</ele>
        <time>2014-06-13T08:56:23Z</time>
      </trkpt>
      <trkpt lat="42.65506" lon="2.16249">
        <ele>1963</ele>
        <time>2014-06-13T08:57:02Z</time>
      </trkpt>
      <trkpt lat="42.65549" lon="2.16226">
        <ele>1964</ele>
        <time>2014-06-13T08:57:38Z</time>
      </trkpt>
      <trkpt lat="42.6558" lon="2.16182">
        <ele>1958</ele>
        <time>2014-06-13T08:58:20Z</time>
      </trkpt>
      <trkpt lat="42.65604" lon="2.16129">
        <ele>1960</ele>
        <time>2014-06-13T08:59:00Z</time>
      </trkpt>
      <trkpt lat="42.65636" lon="2.16084">
        <ele>1963</ele>
        <time>2014-06-13T08:59:39Z</time>
      </trkpt>
      <trkpt lat="42.65658" lon="2.1603">
        <ele>1946</ele>
        <time>2014-06-13T09:00:16Z</time>
      </trkpt>
      <trkpt lat="42.65679" lon="2.15975">
        <ele>1951</ele>
        <time>2014-06-13T09:00:53Z</time>
      </trkpt>
      <trkpt lat="42.65702" lon="2.1592">
        <ele>1948</ele>
        <time>2014-06-13T09:02:03Z</time>
      </trkpt>
      <trkpt lat="42.65712" lon="2.15859">
        <ele>1932</ele>
        <time>2014-06-13T09:02:41Z</time>
      </trkpt>
      <trkpt lat="42.65716" lon="2.15798">
        <ele>1919</ele>
        <time>2014-06-13T09:03:21Z</time>
      </trkpt>
      <trkpt lat="42.6573" lon="2.1574">
        <ele>1912</ele>
        <time>2014-06-13T09:04:13Z</time>
      </trkpt>
      <trkpt lat="42.65732" lon="2.15679">
        <ele>1907</ele>
        <time>2014-06-13T09:04:47Z</time>
      </trkpt>
      <trkpt lat="42.65713" lon="2.15622">
        <ele>1892</ele>
        <time>2014-06-13T09:06:03Z</time>
      </trkpt>
      <trkpt lat="42.65672" lon="2.15596">
        <ele>1884</ele>
        <time>2014-06-13T09:07:19Z</time>
      </trkpt>
      <trkpt lat="42.65641" lon="2.1555">
        <ele>1858</ele>
        <time>2014-06-13T09:08:32Z</time>
      </trkpt>
      <trkpt lat="42.65631" lon="2.1549">
        <ele>1846</ele>
        <time>2014-06-13T09:09:50Z</time>
      </trkpt>
      <trkpt lat="42.65652" lon="2.15436">
        <ele>1845</ele>
        <time>2014-06-13T09:10:34Z</time>
      </trkpt>
      <trkpt lat="42.65647" lon="2.15375">
        <ele>1832</ele>
        <time>2014-06-13T09:11:23Z</time>
      </trkpt>
      <trkpt lat="42.6563" lon="2.15315">
        <ele>1820</ele>
        <time>2014-06-13T09:13:00Z</time>
      </trkpt>
      <trkpt lat="42.65675" lon="2.1531">
        <ele>1823</ele>
        <time>2014-06-13T09:19:21Z</time>
      </trkpt>
      <trkpt lat="42.65692" lon="2.15253">
        <ele>1816</ele>
        <time>2014-06-13T09:20:23Z</time>
      </trkpt>
      <trkpt lat="42.65676" lon="2.15195">
        <ele>1798</ele>
        <time>2014-06-13T09:21:43Z</time>
      </trkpt>
      <trkpt lat="42.65722" lon="2.1521">
        <ele>1797</ele>
        <time>2014-06-13T09:23:15Z</time>
      </trkpt>
      <trkpt lat="42.6577" lon="2.15218">
        <ele>1788</ele>
        <time>2014-06-13T09:24:05Z</time>
      </trkpt>
      <trkpt lat="42.65815" lon="2.15218">
        <ele>1785</ele>
        <time>2014-06-13T09:24:34Z</time>
      </trkpt>
      <trkpt lat="42.65791" lon="2.15165">
        <ele>1765</ele>
        <time>2014-06-13T09:25:42Z</time>
      </trkpt>
      <trkpt lat="42.65752" lon="2.15129">
        <ele>1763</ele>
        <time>2014-06-13T09:26:29Z</time>
      </trkpt>
      <trkpt lat="42.65726" lon="2.15078">
        <ele>1753</ele>
        <time>2014-06-13T09:27:18Z</time>
      </trkpt>
      <trkpt lat="42.65718" lon="2.15018">
        <ele>1747</ele>
        <time>2014-06-13T09:28:06Z</time>
      </trkpt>
      <trkpt lat="42.65693" lon="2.14965">
        <ele>1735</ele>
        <time>2014-06-13T09:28:49Z</time>
      </trkpt>
      <trkpt lat="42.65675" lon="2.14909">
        <ele>1728</ele>
        <time>2014-06-13T09:29:29Z</time>
      </trkpt>
      <trkpt lat="42.65651" lon="2.14857">
        <ele>1723</ele>
        <time>2014-06-13T09:30:09Z</time>
      </trkpt>
      <trkpt lat="42.65648" lon="2.14796">
        <ele>1711</ele>
        <time>2014-06-13T09:30:58Z</time>
      </trkpt>
      <trkpt lat="42.65634" lon="2.14737">
        <ele>1694</ele>
        <time>2014-06-13T09:31:53Z</time>
      </trkpt>
      <trkpt lat="42.65588" lon="2.14739">
        <ele>1693</ele>
        <time>2014-06-13T09:33:12Z</time>
      </trkpt>
      <trkpt lat="42.65602" lon="2.14679">
        <ele>1683</ele>
        <time>2014-06-13T09:34:18Z</time>
      </trkpt>
      <trkpt lat="42.65646" lon="2.14661">
        <ele>1671</ele>
        <time>2014-06-13T09:35:04Z</time>
      </trkpt>
      <trkpt lat="42.65627" lon="2.14603">
        <ele>1661</ele>
        <time>2014-06-13T09:36:42Z</time>
      </trkpt>
      <trkpt lat="42.65584" lon="2.14583">
        <ele>1652</ele>
        <time>2014-06-13T09:37:27Z</time>
      </trkpt>
      <trkpt lat="42.65538" lon="2.14572">
        <ele>1641</ele>
        <time>2014-06-13T09:39:54Z</time>
      </trkpt>
      <trkpt lat="42.65642" lon="2.14636">
        <ele>1666</ele>
        <time>2014-06-13T09:44:03Z</time>
      </trkpt>
      <trkpt lat="42.65598" lon="2.14602">
        <ele>1659</ele>
        <time>2014-06-13T09:44:04Z</time>
      </trkpt>
      <trkpt lat="42.65561" lon="2.14564">
        <ele>1642</ele>
        <time>2014-06-13T09:44:07Z</time>
      </trkpt>
      <trkpt lat="42.65517" lon="2.14583">
        <ele>1641</ele>
        <time>2014-06-13T09:50:53Z</time>
      </trkpt>
      <trkpt lat="42.65479" lon="2.14618">
        <ele>1637</ele>
        <time>2014-06-13T09:51:58Z</time>
      </trkpt>
      <trkpt lat="42.65451" lon="2.14672">
        <ele>1640</ele>
        <time>2014-06-13T09:53:23Z</time>
      </trkpt>
      <trkpt lat="42.65423" lon="2.14726">
        <ele>1641</ele>
        <time>2014-06-13T09:54:17Z</time>
      </trkpt>
      <trkpt lat="42.65402" lon="2.14671">
        <ele>1625</ele>
        <time>2014-06-13T09:55:53Z</time>
      </trkpt>
      <trkpt lat="42.65411" lon="2.14609">
        <ele>1617</ele>
        <time>2014-06-13T09:57:01Z</time>
      </trkpt>
      <trkpt lat="42.65404" lon="2.14547">
        <ele>1609</ele>
        <time>2014-06-13T09:57:40Z</time>
      </trkpt>
      <trkpt lat="42.65392" lon="2.14487">
        <ele>1600</ele>
        <time>2014-06-13T09:58:13Z</time>
      </trkpt>
      <trkpt lat="42.65388" lon="2.14426">
        <ele>1594</ele>
        <time>2014-06-13T09:58:48Z</time>
      </trkpt>
      <trkpt lat="42.65417" lon="2.14377">
        <ele>1588</ele>
        <time>2014-06-13T09:59:22Z</time>
      </trkpt>
      <trkpt lat="42.6546" lon="2.14357">
        <ele>1587</ele>
        <time>2014-06-13T09:59:55Z</time>
      </trkpt>
      <trkpt lat="42.65505" lon="2.14353">
        <ele>1584</ele>
        <time>2014-06-13T10:00:30Z</time>
      </trkpt>
      <trkpt lat="42.6555" lon="2.14353">
        <ele>1582</ele>
        <time>2014-06-13T10:01:01Z</time>
      </trkpt>
      <trkpt lat="42.65595" lon="2.14342">
        <ele>1574</ele>
        <time>2014-06-13T10:01:37Z</time>
      </trkpt>
      <trkpt lat="42.65641" lon="2.14344">
        <ele>1577</ele>
        <time>2014-06-13T10:02:05Z</time>
      </trkpt>
      <trkpt lat="42.65606" lon="2.14302">
        <ele>1565</ele>
        <time>2014-06-13T10:03:16Z</time>
      </trkpt>
      <trkpt lat="42.65565" lon="2.14273">
        <ele>1565</ele>
        <time>2014-06-13T10:03:50Z</time>
      </trkpt>
      <trkpt lat="42.65522" lon="2.14251">
        <ele>1566</ele>
        <time>2014-06-13T10:04:21Z</time>
      </trkpt>
      <trkpt lat="42.65483" lon="2.14221">
        <ele>1562</ele>
        <time>2014-06-13T10:04:56Z</time>
      </trkpt>
      <trkpt lat="42.65502" lon="2.14166">
        <ele>1556</ele>
        <time>2014-06-13T10:05:39Z</time>
      </trkpt>
      <trkpt lat="42.65541" lon="2.14134">
        <ele>1552</ele>
        <time>2014-06-13T10:06:53Z</time>
      </trkpt>
      <trkpt lat="42.65574" lon="2.14092">
        <ele>1548</ele>
        <time>2014-06-13T10:07:26Z</time>
      </trkpt>
      <trkpt lat="42.65608" lon="2.14052">
        <ele>1542</ele>
        <time>2014-06-13T10:08:00Z</time>
      </trkpt>
      <trkpt lat="42.65643" lon="2.14013">
        <ele>1539</ele>
        <time>2014-06-13T10:08:33Z</time>
      </trkpt>
      <trkpt lat="42.65687" lon="2.13999">
        <ele>1531</ele>
        <time>2014-06-13T10:09:08Z</time>
      </trkpt>
      <trkpt lat="42.65692" lon="2.13938">
        <ele>1527</ele>
        <time>2014-06-13T10:10:11Z</time>
      </trkpt>
      <trkpt lat="42.65672" lon="2.13882">
        <ele>1519</ele>
        <time>2014-06-13T10:10:50Z</time>
      </trkpt>
      <trkpt lat="42.65646" lon="2.1383">
        <ele>1515</ele>
        <time>2014-06-13T10:11:17Z</time>
      </trkpt>
      <trkpt lat="42.65619" lon="2.13779">
        <ele>1511</ele>
        <time>2014-06-13T10:11:54Z</time>
      </trkpt>
      <trkpt lat="42.65603" lon="2.13721">
        <ele>1504</ele>
        <time>2014-06-13T10:12:29Z</time>
      </trkpt>
      <trkpt lat="42.65589" lon="2.13662">
        <ele>1498</ele>
        <time>2014-06-13T10:13:05Z</time>
      </trkpt>
      <trkpt lat="42.65615" lon="2.13608">
        <ele>1494</ele>
        <time>2014-06-13T10:13:39Z</time>
      </trkpt>
      <trkpt lat="42.65644" lon="2.13561">
        <ele>1487</ele>
        <time>2014-06-13T10:14:17Z</time>
      </trkpt>
      <trkpt lat="42.65666" lon="2.13506">
        <ele>1483</ele>
        <time>2014-06-13T10:14:49Z</time>
      </trkpt>
      <trkpt lat="42.65692" lon="2.13456">
        <ele>1478</ele>
        <time>2014-06-13T10:15:23Z</time>
      </trkpt>
      <trkpt lat="42.6572" lon="2.13407">
        <ele>1472</ele>
        <time>2014-06-13T10:15:59Z</time>
      </trkpt>
      <trkpt lat="42.65737" lon="2.13348">
        <ele>1470</ele>
        <time>2014-06-13T10:16:33Z</time>
      </trkpt>
      <trkpt lat="42.65749" lon="2.13289">
        <ele>1464</ele>
        <time>2014-06-13T10:17:16Z</time>
      </trkpt>
      <trkpt lat="42.65744" lon="2.13227">
        <ele>1459</ele>
        <time>2014-06-13T10:17:53Z</time>
      </trkpt>
      <trkpt lat="42.65774" lon="2.1318">
        <ele>1456</ele>
        <time>2014-06-13T10:18:51Z</time>
      </trkpt>
      <trkpt lat="42.65808" lon="2.1314">
        <ele>1450</ele>
        <time>2014-06-13T10:19:25Z</time>
      </trkpt>
      <trkpt lat="42.65837" lon="2.13093">
        <ele>1448</ele>
        <time>2014-06-13T10:20:00Z</time>
      </trkpt>
      <trkpt lat="42.65849" lon="2.13032">
        <ele>1445</ele>
        <time>2014-06-13T10:20:32Z</time>
      </trkpt>
      <trkpt lat="42.65843" lon="2.1297">
        <ele>1445</ele>
        <time>2014-06-13T10:21:07Z</time>
      </trkpt>
      <trkpt lat="42.65856" lon="2.12911">
        <ele>1445</ele>
        <time>2014-06-13T10:21:43Z</time>
      </trkpt>
      <trkpt lat="42.65843" lon="2.12852">
        <ele>1444</ele>
        <time>2014-06-13T10:22:18Z</time>
      </trkpt>
      <trkpt lat="42.65817" lon="2.128">
        <ele>1436</ele>
        <time>2014-06-13T10:22:51Z</time>
      </trkpt>
      <trkpt lat="42.65798" lon="2.12744">
        <ele>1431</ele>
        <time>2014-06-13T10:23:27Z</time>
      </trkpt>
      <trkpt lat="42.65774" lon="2.12691">
        <ele>1427</ele>
        <time>2014-06-13T10:24:04Z</time>
      </trkpt>
      <trkpt lat="42.6575" lon="2.12746">
        <ele>1425</ele>
        <time>2014-06-13T10:25:25Z</time>
      </trkpt>
      <trkpt lat="42.6571" lon="2.12716">
        <ele>1418</ele>
        <time>2014-06-13T10:26:08Z</time>
      </trkpt>
      <trkpt lat="42.65675" lon="2.12674">
        <ele>1413</ele>
        <time>2014-06-13T10:26:44Z</time>
      </trkpt>
      <trkpt lat="42.65655" lon="2.12619">
        <ele>1410</ele>
        <time>2014-06-13T10:27:14Z</time>
      </trkpt>
      <trkpt lat="42.65658" lon="2.12557">
        <ele>1406</ele>
        <time>2014-06-13T10:27:48Z</time>
      </trkpt>
      <trkpt lat="42.65645" lon="2.12498">
        <ele>1399</ele>
        <time>2014-06-13T10:28:28Z</time>
      </trkpt>
      <trkpt lat="42.65607" lon="2.12464">
        <ele>1398</ele>
        <time>2014-06-13T10:29:38Z</time>
      </trkpt>
      <trkpt lat="42.65561" lon="2.12476">
        <ele>1401</ele>
        <time>2014-06-13T10:30:12Z</time>
      </trkpt>
      <trkpt lat="42.65515" lon="2.12482">
        <ele>1401</ele>
        <time>2014-06-13T10:30:46Z</time>
      </trkpt>
      <trkpt lat="42.6547" lon="2.12495">
        <ele>1402</ele>
        <time>2014-06-13T10:31:20Z</time>
      </trkpt>
      <trkpt lat="42.65426" lon="2.1251">
        <ele>1405</ele>
        <time>2014-06-13T10:31:52Z</time>
      </trkpt>
      <trkpt lat="42.65382" lon="2.12491">
        <ele>1402</ele>
        <time>2014-06-13T10:32:23Z</time>
      </trkpt>
      <trkpt lat="42.65341" lon="2.12463">
        <ele>1401</ele>
        <time>2014-06-13T10:33:00Z</time>
      </trkpt>
      <trkpt lat="42.65296" lon="2.12456">
        <ele>1401</ele>
        <time>2014-06-13T10:33:38Z</time>
      </trkpt>
      <trkpt lat="42.65251" lon="2.12469">
        <ele>1402</ele>
        <time>2014-06-13T10:34:13Z</time>
      </trkpt>
      <trkpt lat="42.65207" lon="2.12489">
        <ele>1400</ele>
        <time>2014-06-13T10:34:48Z</time>
      </trkpt>
      <trkpt lat="42.65169" lon="2.12524">
        <ele>1404</ele>
        <time>2014-06-13T10:35:26Z</time>
      </trkpt>
      <trkpt lat="42.65131" lon="2.12559">
        <ele>1402</ele>
        <time>2014-06-13T10:36:02Z</time>
      </trkpt>
      <trkpt lat="42.65088" lon="2.12579">
        <ele>1401</ele>
        <time>2014-06-13T10:36:36Z</time>
      </trkpt>
      <trkpt lat="42.65045" lon="2.12601">
        <ele>1407</ele>
        <time>2014-06-13T10:37:13Z</time>
      </trkpt>
      <trkpt lat="42.64999" lon="2.12607">
        <ele>1409</ele>
        <time>2014-06-13T10:38:38Z</time>
      </trkpt>
      <trkpt lat="42.64953" lon="2.12598">
        <ele>1411</ele>
        <time>2014-06-13T10:39:31Z</time>
      </trkpt>
      <trkpt lat="42.64911" lon="2.1257">
        <ele>1410</ele>
        <time>2014-06-13T10:40:23Z</time>
      </trkpt>
      <trkpt lat="42.64913" lon="2.12632">
        <ele>1420</ele>
        <time>2014-06-13T10:41:57Z</time>
      </trkpt>
      <trkpt lat="42.64866" lon="2.12638">
        <ele>1421</ele>
        <time>2014-06-13T10:43:02Z</time>
      </trkpt>
      <trkpt lat="42.64824" lon="2.12615">
        <ele>1422</ele>
        <time>2014-06-13T10:44:35Z</time>
      </trkpt>
      <trkpt lat="42.64822" lon="2.12552">
        <ele>1418</ele>
        <time>2014-06-13T10:45:13Z</time>
      </trkpt>
      <trkpt lat="42.64828" lon="2.12492">
        <ele>1417</ele>
        <time>2014-06-13T10:46:01Z</time>
      </trkpt>
      <trkpt lat="42.64831" lon="2.12431">
        <ele>1424</ele>
        <time>2014-06-13T10:48:02Z</time>
      </trkpt>
      <trkpt lat="42.64875" lon="2.12443">
        <ele>1418</ele>
        <time>2014-06-13T10:48:59Z</time>
      </trkpt>
      <trkpt lat="42.64838" lon="2.12407">
        <ele>1429</ele>
        <time>2014-06-13T10:52:27Z</time>
      </trkpt>
      <trkpt lat="42.64807" lon="2.12361">
        <ele>1435</ele>
        <time>2014-06-13T10:53:20Z</time>
      </trkpt>
      <trkpt lat="42.64783" lon="2.12308">
        <ele>1447</ele>
        <time>2014-06-13T10:54:48Z</time>
      </trkpt>
      <trkpt lat="42.6475" lon="2.12264">
        <ele>1444</ele>
        <time>2014-06-13T10:55:31Z</time>
      </trkpt>
      <trkpt lat="42.64717" lon="2.12221">
        <ele>1452</ele>
        <time>2014-06-13T10:56:15Z</time>
      </trkpt>
      <trkpt lat="42.64694" lon="2.12169">
        <ele>1455</ele>
        <time>2014-06-13T10:57:00Z</time>
      </trkpt>
      <trkpt lat="42.64678" lon="2.12111">
        <ele>1469</ele>
        <time>2014-06-13T10:58:01Z</time>
      </trkpt>
      <trkpt lat="42.64655" lon="2.12058">
        <ele>1467</ele>
        <time>2014-06-13T10:59:52Z</time>
      </trkpt>
      <trkpt lat="42.64661" lon="2.11996">
        <ele>1470</ele>
        <time>2014-06-13T11:00:36Z</time>
      </trkpt>
      <trkpt lat="42.64662" lon="2.11935">
        <ele>1468</ele>
        <time>2014-06-13T11:01:10Z</time>
      </trkpt>
      <trkpt lat="42.64663" lon="2.11997">
        <ele>1470</ele>
        <time>2014-06-13T11:04:52Z</time>
      </trkpt>
      <trkpt lat="42.64623" lon="2.12027">
        <ele>1465</ele>
        <time>2014-06-13T11:05:31Z</time>
      </trkpt>
      <trkpt lat="42.64655" lon="2.1207">
        <ele>1467</ele>
        <time>2014-06-13T11:06:54Z</time>
      </trkpt>
      <trkpt lat="42.64732" lon="2.11921">
        <ele>1469</ele>
        <time>2014-06-13T13:01:09Z</time>
      </trkpt>
      <trkpt lat="42.64712" lon="2.11918">
        <ele>1470</ele>
        <time>2014-06-13T13:01:10Z</time>
      </trkpt>
      <trkpt lat="42.64678" lon="2.11878">
        <ele>1465</ele>
        <time>2014-06-13T13:04:09Z</time>
      </trkpt>
      <trkpt lat="42.64674" lon="2.11816">
        <ele>1460</ele>
        <time>2014-06-13T13:04:56Z</time>
      </trkpt>
      <trkpt lat="42.64664" lon="2.11757">
        <ele>1460</ele>
        <time>2014-06-13T13:05:31Z</time>
      </trkpt>
      <trkpt lat="42.64654" lon="2.11696">
        <ele>1460</ele>
        <time>2014-06-13T13:06:13Z</time>
      </trkpt>
      <trkpt lat="42.64641" lon="2.11637">
        <ele>1459</ele>
        <time>2014-06-13T13:06:52Z</time>
      </trkpt>
      <trkpt lat="42.64638" lon="2.11575">
        <ele>1457</ele>
        <time>2014-06-13T13:07:33Z</time>
      </trkpt>
      <trkpt lat="42.64645" lon="2.11514">
        <ele>1456</ele>
        <time>2014-06-13T13:08:10Z</time>
      </trkpt>
      <trkpt lat="42.64643" lon="2.11452">
        <ele>1457</ele>
        <time>2014-06-13T13:08:48Z</time>
      </trkpt>
      <trkpt lat="42.64639" lon="2.1139">
        <ele>1458</ele>
        <time>2014-06-13T13:09:33Z</time>
      </trkpt>
      <trkpt lat="42.64632" lon="2.11329">
        <ele>1460</ele>
        <time>2014-06-13T13:10:13Z</time>
      </trkpt>
      <trkpt lat="42.64618" lon="2.11271">
        <ele>1461</ele>
        <time>2014-06-13T13:10:57Z</time>
      </trkpt>
      <trkpt lat="42.64594" lon="2.11217">
        <ele>1462</ele>
        <time>2014-06-13T13:11:51Z</time>
      </trkpt>
      <trkpt lat="42.64572" lon="2.11164">
        <ele>1462</ele>
        <time>2014-06-13T13:12:28Z</time>
      </trkpt>
      <trkpt lat="42.64547" lon="2.11112">
        <ele>1461</ele>
        <time>2014-06-13T13:13:08Z</time>
      </trkpt>
      <trkpt lat="42.6453" lon="2.11052">
        <ele>1459</ele>
        <time>2014-06-13T13:13:47Z</time>
      </trkpt>
      <trkpt lat="42.64496" lon="2.1101">
        <ele>1454</ele>
        <time>2014-06-13T13:14:27Z</time>
      </trkpt>
      <trkpt lat="42.64451" lon="2.1101">
        <ele>1452</ele>
        <time>2014-06-13T13:15:09Z</time>
      </trkpt>
      <trkpt lat="42.64406" lon="2.11006">
        <ele>1448</ele>
        <time>2014-06-13T13:15:48Z</time>
      </trkpt>
      <trkpt lat="42.6436" lon="2.11015">
        <ele>1447</ele>
        <time>2014-06-13T13:16:31Z</time>
      </trkpt>
      <trkpt lat="42.64319" lon="2.11042">
        <ele>1447</ele>
        <time>2014-06-13T13:17:17Z</time>
      </trkpt>
      <trkpt lat="42.64276" lon="2.11064">
        <ele>1447</ele>
        <time>2014-06-13T13:18:21Z</time>
      </trkpt>
      <trkpt lat="42.64232" lon="2.11081">
        <ele>1449</ele>
        <time>2014-06-13T13:18:58Z</time>
      </trkpt>
      <trkpt lat="42.64187" lon="2.11094">
        <ele>1443</ele>
        <time>2014-06-13T13:19:39Z</time>
      </trkpt>
      <trkpt lat="42.64142" lon="2.11107">
        <ele>1439</ele>
        <time>2014-06-13T13:20:18Z</time>
      </trkpt>
      <trkpt lat="42.64097" lon="2.11112">
        <ele>1437</ele>
        <time>2014-06-13T13:21:00Z</time>
      </trkpt>
      <trkpt lat="42.64063" lon="2.11153">
        <ele>1437</ele>
        <time>2014-06-13T13:22:19Z</time>
      </trkpt>
      <trkpt lat="42.64018" lon="2.11159">
        <ele>1440</ele>
        <time>2014-06-13T13:23:16Z</time>
      </trkpt>
      <trkpt lat="42.63977" lon="2.11132">
        <ele>1445</ele>
        <time>2014-06-13T13:24:07Z</time>
      </trkpt>
      <trkpt lat="42.63938" lon="2.111">
        <ele>1446</ele>
        <time>2014-06-13T13:24:46Z</time>
      </trkpt>
      <trkpt lat="42.63896" lon="2.11074">
        <ele>1448</ele>
        <time>2014-06-13T13:25:31Z</time>
      </trkpt>
      <trkpt lat="42.63852" lon="2.1106">
        <ele>1450</ele>
        <time>2014-06-13T13:26:18Z</time>
      </trkpt>
      <trkpt lat="42.6381" lon="2.11037">
        <ele>1454</ele>
        <time>2014-06-13T13:27:00Z</time>
      </trkpt>
      <trkpt lat="42.63776" lon="2.10994">
        <ele>1455</ele>
        <time>2014-06-13T13:27:44Z</time>
      </trkpt>
      <trkpt lat="42.63745" lon="2.10949">
        <ele>1460</ele>
        <time>2014-06-13T13:34:49Z</time>
      </trkpt>
      <trkpt lat="42.63706" lon="2.10919">
        <ele>1461</ele>
        <time>2014-06-13T13:35:35Z</time>
      </trkpt>
      <trkpt lat="42.63677" lon="2.10871">
        <ele>1459</ele>
        <time>2014-06-13T13:36:24Z</time>
      </trkpt>
      <trkpt lat="42.6364" lon="2.10836">
        <ele>1464</ele>
        <time>2014-06-13T13:37:10Z</time>
      </trkpt>
      <trkpt lat="42.63601" lon="2.10803">
        <ele>1463</ele>
        <time>2014-06-13T13:37:51Z</time>
      </trkpt>
      <trkpt lat="42.63564" lon="2.10768">
        <ele>1469</ele>
        <time>2014-06-13T13:38:33Z</time>
      </trkpt>
      <trkpt lat="42.63526" lon="2.10731">
        <ele>1470</ele>
        <time>2014-06-13T13:39:19Z</time>
      </trkpt>
      <trkpt lat="42.63493" lon="2.1069">
        <ele>1474</ele>
        <time>2014-06-13T13:40:03Z</time>
      </trkpt>
      <trkpt lat="42.63449" lon="2.10675">
        <ele>1477</ele>
        <time>2014-06-13T13:40:48Z</time>
      </trkpt>
      <trkpt lat="42.63406" lon="2.10655">
        <ele>1479</ele>
        <time>2014-06-13T13:41:41Z</time>
      </trkpt>
      <trkpt lat="42.63361" lon="2.10643">
        <ele>1484</ele>
        <time>2014-06-13T13:42:28Z</time>
      </trkpt>
      <trkpt lat="42.63319" lon="2.10623">
        <ele>1492</ele>
        <time>2014-06-13T13:43:14Z</time>
      </trkpt>
      <trkpt lat="42.63289" lon="2.10578">
        <ele>1486</ele>
        <time>2014-06-13T13:43:56Z</time>
      </trkpt>
      <trkpt lat="42.63265" lon="2.10526">
        <ele>1486</ele>
        <time>2014-06-13T13:44:40Z</time>
      </trkpt>
      <trkpt lat="42.63223" lon="2.105">
        <ele>1494</ele>
        <time>2014-06-13T13:45:26Z</time>
      </trkpt>
      <trkpt lat="42.6318" lon="2.10479">
        <ele>1493</ele>
        <time>2014-06-13T13:46:07Z</time>
      </trkpt>
      <trkpt lat="42.63139" lon="2.10456">
        <ele>1501</ele>
        <time>2014-06-13T13:46:49Z</time>
      </trkpt>
      <trkpt lat="42.63095" lon="2.10437">
        <ele>1503</ele>
        <time>2014-06-13T13:47:34Z</time>
      </trkpt>
      <trkpt lat="42.63051" lon="2.10418">
        <ele>1514</ele>
        <time>2014-06-13T13:48:19Z</time>
      </trkpt>
      <trkpt lat="42.63011" lon="2.1039">
        <ele>1508</ele>
        <time>2014-06-13T13:49:38Z</time>
      </trkpt>
      <trkpt lat="42.62966" lon="2.10381">
        <ele>1517</ele>
        <time>2014-06-13T13:50:26Z</time>
      </trkpt>
      <trkpt lat="42.62921" lon="2.10365">
        <ele>1518</ele>
        <time>2014-06-13T13:51:15Z</time>
      </trkpt>
      <trkpt lat="42.62881" lon="2.10335">
        <ele>1525</ele>
        <time>2014-06-13T13:51:58Z</time>
      </trkpt>
      <trkpt lat="42.62838" lon="2.10304">
        <ele>1518</ele>
        <time>2014-06-13T13:52:50Z</time>
      </trkpt>
      <trkpt lat="42.62798" lon="2.10276">
        <ele>1525</ele>
        <time>2014-06-13T13:53:32Z</time>
      </trkpt>
      <trkpt lat="42.62761" lon="2.1024">
        <ele>1520</ele>
        <time>2014-06-13T13:54:15Z</time>
      </trkpt>
      <trkpt lat="42.62722" lon="2.10209">
        <ele>1525</ele>
        <time>2014-06-13T13:54:55Z</time>
      </trkpt>
      <trkpt lat="42.62676" lon="2.10184">
        <ele>1526</ele>
        <time>2014-06-13T13:55:46Z</time>
      </trkpt>
      <trkpt lat="42.62639" lon="2.10147">
        <ele>1527</ele>
        <time>2014-06-13T13:56:28Z</time>
      </trkpt>
      <trkpt lat="42.62597" lon="2.10119">
        <ele>1527</ele>
        <time>2014-06-13T13:57:09Z</time>
      </trkpt>
      <trkpt lat="42.62555" lon="2.10096">
        <ele>1535</ele>
        <time>2014-06-13T13:57:53Z</time>
      </trkpt>
      <trkpt lat="42.62519" lon="2.10058">
        <ele>1530</ele>
        <time>2014-06-13T13:58:36Z</time>
      </trkpt>
      <trkpt lat="42.62484" lon="2.10018">
        <ele>1533</ele>
        <time>2014-06-13T13:59:18Z</time>
      </trkpt>
      <trkpt lat="42.62443" lon="2.09992">
        <ele>1530</ele>
        <time>2014-06-13T13:59:59Z</time>
      </trkpt>
      <trkpt lat="42.62403" lon="2.09962">
        <ele>1535</ele>
        <time>2014-06-13T14:00:40Z</time>
      </trkpt>
      <trkpt lat="42.62365" lon="2.09928">
        <ele>1534</ele>
        <time>2014-06-13T14:01:16Z</time>
      </trkpt>
      <trkpt lat="42.62341" lon="2.09874">
        <ele>1527</ele>
        <time>2014-06-13T14:02:24Z</time>
      </trkpt>
      <trkpt lat="42.62318" lon="2.09822">
        <ele>1526</ele>
        <time>2014-06-13T14:03:03Z</time>
      </trkpt>
      <trkpt lat="42.62286" lon="2.09777">
        <ele>1528</ele>
        <time>2014-06-13T14:03:49Z</time>
      </trkpt>
      <trkpt lat="42.6226" lon="2.09727">
        <ele>1527</ele>
        <time>2014-06-13T14:04:29Z</time>
      </trkpt>
      <trkpt lat="42.62293" lon="2.09683">
        <ele>1527</ele>
        <time>2014-06-13T14:05:23Z</time>
      </trkpt>
      <trkpt lat="42.62332" lon="2.0965">
        <ele>1526</ele>
        <time>2014-06-13T14:06:03Z</time>
      </trkpt>
      <trkpt lat="42.62367" lon="2.09611">
        <ele>1527</ele>
        <time>2014-06-13T14:06:40Z</time>
      </trkpt>
      <trkpt lat="42.62399" lon="2.09567">
        <ele>1528</ele>
        <time>2014-06-13T14:09:10Z</time>
      </trkpt>
      <trkpt lat="42.62405" lon="2.09506">
        <ele>1528</ele>
        <time>2014-06-13T14:24:42Z</time>
      </trkpt>
      <trkpt lat="42.62379" lon="2.09455">
        <ele>1530</ele>
        <time>2014-06-13T14:25:23Z</time>
      </trkpt>
      <trkpt lat="42.62365" lon="2.09397">
        <ele>1533</ele>
        <time>2014-06-13T14:26:14Z</time>
      </trkpt>
      <trkpt lat="42.62407" lon="2.09372">
        <ele>1536</ele>
        <time>2014-06-13T14:27:15Z</time>
      </trkpt>
      <trkpt lat="42.62454" lon="2.09366">
        <ele>1552</ele>
        <time>2014-06-13T14:28:19Z</time>
      </trkpt>
      <trkpt lat="42.62497" lon="2.09347">
        <ele>1563</ele>
        <time>2014-06-13T14:29:12Z</time>
      </trkpt>
      <trkpt lat="42.62492" lon="2.09283">
        <ele>1567</ele>
        <time>2014-06-13T14:30:30Z</time>
      </trkpt>
      <trkpt lat="42.62476" lon="2.09224">
        <ele>1569</ele>
        <time>2014-06-13T14:31:19Z</time>
      </trkpt>
      <trkpt lat="42.62475" lon="2.09163">
        <ele>1571</ele>
        <time>2014-06-13T14:32:01Z</time>
      </trkpt>
      <trkpt lat="42.62482" lon="2.09101">
        <ele>1571</ele>
        <time>2014-06-13T14:32:39Z</time>
      </trkpt>
      <trkpt lat="42.62484" lon="2.0904">
        <ele>1568</ele>
        <time>2014-06-13T14:33:16Z</time>
      </trkpt>
      <trkpt lat="42.62506" lon="2.08986">
        <ele>1583</ele>
        <time>2014-06-13T14:34:03Z</time>
      </trkpt>
      <trkpt lat="42.62523" lon="2.08926">
        <ele>1586</ele>
        <time>2014-06-13T14:34:57Z</time>
      </trkpt>
      <trkpt lat="42.62536" lon="2.08867">
        <ele>1587</ele>
        <time>2014-06-13T14:35:38Z</time>
      </trkpt>
      <trkpt lat="42.62552" lon="2.08809">
        <ele>1584</ele>
        <time>2014-06-13T14:36:27Z</time>
      </trkpt>
      <trkpt lat="42.62571" lon="2.08753">
        <ele>1588</ele>
        <time>2014-06-13T14:37:02Z</time>
      </trkpt>
      <trkpt lat="42.62587" lon="2.08695">
        <ele>1598</ele>
        <time>2014-06-13T14:37:41Z</time>
      </trkpt>
      <trkpt lat="42.62611" lon="2.08642">
        <ele>1592</ele>
        <time>2014-06-13T14:38:23Z</time>
      </trkpt>
      <trkpt lat="42.62636" lon="2.08591">
        <ele>1596</ele>
        <time>2014-06-13T14:39:04Z</time>
      </trkpt>
      <trkpt lat="42.6266" lon="2.08538">
        <ele>1585</ele>
        <time>2014-06-13T14:40:01Z</time>
      </trkpt>
      <trkpt lat="42.62682" lon="2.08483">
        <ele>1596</ele>
        <time>2014-06-13T14:40:35Z</time>
      </trkpt>
      <trkpt lat="42.62709" lon="2.08433">
        <ele>1598</ele>
        <time>2014-06-13T14:41:11Z</time>
      </trkpt>
      <trkpt lat="42.62736" lon="2.08383">
        <ele>1587</ele>
        <time>2014-06-13T14:41:48Z</time>
      </trkpt>
      <trkpt lat="42.62762" lon="2.08333">
        <ele>1591</ele>
        <time>2014-06-13T14:42:25Z</time>
      </trkpt>
      <trkpt lat="42.62788" lon="2.08282">
        <ele>1597</ele>
        <time>2014-06-13T14:43:02Z</time>
      </trkpt>
      <trkpt lat="42.62813" lon="2.08232">
        <ele>1591</ele>
        <time>2014-06-13T14:43:38Z</time>
      </trkpt>
      <trkpt lat="42.62834" lon="2.08177">
        <ele>1604</ele>
        <time>2014-06-13T14:44:10Z</time>
      </trkpt>
      <trkpt lat="42.62863" lon="2.08128">
        <ele>1605</ele>
        <time>2014-06-13T14:44:53Z</time>
      </trkpt>
      <trkpt lat="42.62886" lon="2.08075">
        <ele>1598</ele>
        <time>2014-06-13T14:45:38Z</time>
      </trkpt>
      <trkpt lat="42.62906" lon="2.0802">
        <ele>1596</ele>
        <time>2014-06-13T14:46:19Z</time>
      </trkpt>
      <trkpt lat="42.62932" lon="2.07969">
        <ele>1611</ele>
        <time>2014-06-13T14:47:01Z</time>
      </trkpt>
      <trkpt lat="42.62957" lon="2.07916">
        <ele>1600</ele>
        <time>2014-06-13T14:47:44Z</time>
      </trkpt>
      <trkpt lat="42.62986" lon="2.0787">
        <ele>1603</ele>
        <time>2014-06-13T14:48:23Z</time>
      </trkpt>
      <trkpt lat="42.63005" lon="2.07813">
        <ele>1616</ele>
        <time>2014-06-13T14:49:03Z</time>
      </trkpt>
      <trkpt lat="42.63025" lon="2.07759">
        <ele>1613</ele>
        <time>2014-06-13T14:49:40Z</time>
      </trkpt>
      <trkpt lat="42.63051" lon="2.07707">
        <ele>1606</ele>
        <time>2014-06-13T14:50:17Z</time>
      </trkpt>
      <trkpt lat="42.63073" lon="2.07653">
        <ele>1601</ele>
        <time>2014-06-13T14:50:55Z</time>
      </trkpt>
      <trkpt lat="42.63101" lon="2.076">
        <ele>1618</ele>
        <time>2014-06-13T14:51:33Z</time>
      </trkpt>
      <trkpt lat="42.63116" lon="2.07543">
        <ele>1608</ele>
        <time>2014-06-13T14:52:10Z</time>
      </trkpt>
      <trkpt lat="42.63142" lon="2.07492">
        <ele>1599</ele>
        <time>2014-06-13T14:52:47Z</time>
      </trkpt>
      <trkpt lat="42.63171" lon="2.07445">
        <ele>1618</ele>
        <time>2014-06-13T14:53:26Z</time>
      </trkpt>
      <trkpt lat="42.63202" lon="2.074">
        <ele>1611</ele>
        <time>2014-06-13T14:54:07Z</time>
      </trkpt>
      <trkpt lat="42.63222" lon="2.07345">
        <ele>1612</ele>
        <time>2014-06-13T14:54:48Z</time>
      </trkpt>
      <trkpt lat="42.63243" lon="2.07288">
        <ele>1602</ele>
        <time>2014-06-13T14:55:29Z</time>
      </trkpt>
      <trkpt lat="42.6327" lon="2.07238">
        <ele>1616</ele>
        <time>2014-06-13T14:56:12Z</time>
      </trkpt>
      <trkpt lat="42.63294" lon="2.07184">
        <ele>1620</ele>
        <time>2014-06-13T14:56:56Z</time>
      </trkpt>
      <trkpt lat="42.63313" lon="2.07128">
        <ele>1620</ele>
        <time>2014-06-13T14:57:37Z</time>
      </trkpt>
      <trkpt lat="42.63323" lon="2.07067">
        <ele>1621</ele>
        <time>2014-06-13T14:58:15Z</time>
      </trkpt>
      <trkpt lat="42.63332" lon="2.07007">
        <ele>1619</ele>
        <time>2014-06-13T14:58:52Z</time>
      </trkpt>
      <trkpt lat="42.63339" lon="2.06945">
        <ele>1638</ele>
        <time>2014-06-13T14:59:32Z</time>
      </trkpt>
      <trkpt lat="42.6335" lon="2.06885">
        <ele>1641</ele>
        <time>2014-06-13T15:00:15Z</time>
      </trkpt>
      <trkpt lat="42.63344" lon="2.06824">
        <ele>1635</ele>
        <time>2014-06-13T15:00:57Z</time>
      </trkpt>
      <trkpt lat="42.63338" lon="2.06763">
        <ele>1637</ele>
        <time>2014-06-13T15:01:32Z</time>
      </trkpt>
      <trkpt lat="42.63333" lon="2.06702">
        <ele>1614</ele>
        <time>2014-06-13T15:02:12Z</time>
      </trkpt>
      <trkpt lat="42.63343" lon="2.06642">
        <ele>1640</ele>
        <time>2014-06-13T15:02:50Z</time>
      </trkpt>
      <trkpt lat="42.63349" lon="2.06581">
        <ele>1635</ele>
        <time>2014-06-13T15:03:31Z</time>
      </trkpt>
      <trkpt lat="42.63349" lon="2.06518">
        <ele>1636</ele>
        <time>2014-06-13T15:04:11Z</time>
      </trkpt>
      <trkpt lat="42.63357" lon="2.06458">
        <ele>1636</ele>
        <time>2014-06-13T15:04:51Z</time>
      </trkpt>
      <trkpt lat="42.63357" lon="2.06397">
        <ele>1629</ele>
        <time>2014-06-13T15:05:31Z</time>
      </trkpt>
      <trkpt lat="42.63363" lon="2.06335">
        <ele>1628</ele>
        <time>2014-06-13T15:06:07Z</time>
      </trkpt>
      <trkpt lat="42.63368" lon="2.06273">
        <ele>1625</ele>
        <time>2014-06-13T15:06:45Z</time>
      </trkpt>
      <trkpt lat="42.63372" lon="2.06211">
        <ele>1622</ele>
        <time>2014-06-13T15:07:24Z</time>
      </trkpt>
      <trkpt lat="42.63375" lon="2.06149">
        <ele>1618</ele>
        <time>2014-06-13T15:08:15Z</time>
      </trkpt>
      <trkpt lat="42.63393" lon="2.0609">
        <ele>1622</ele>
        <time>2014-06-13T15:08:58Z</time>
      </trkpt>
      <trkpt lat="42.63402" lon="2.0603">
        <ele>1618</ele>
        <time>2014-06-13T15:09:35Z</time>
      </trkpt>
      <trkpt lat="42.63413" lon="2.05969">
        <ele>1618</ele>
        <time>2014-06-13T15:10:21Z</time>
      </trkpt>
      <trkpt lat="42.63422" lon="2.05908">
        <ele>1630</ele>
        <time>2014-06-13T15:13:01Z</time>
      </trkpt>
      <trkpt lat="42.63436" lon="2.05849">
        <ele>1633</ele>
        <time>2014-06-13T15:13:57Z</time>
      </trkpt>
      <trkpt lat="42.63458" lon="2.05796">
        <ele>1635</ele>
        <time>2014-06-13T15:14:42Z</time>
      </trkpt>
      <trkpt lat="42.63484" lon="2.05746">
        <ele>1638</ele>
        <time>2014-06-13T15:15:22Z</time>
      </trkpt>
      <trkpt lat="42.63501" lon="2.05688">
        <ele>1648</ele>
        <time>2014-06-13T15:16:05Z</time>
      </trkpt>
      <trkpt lat="42.63507" lon="2.05626">
        <ele>1644</ele>
        <time>2014-06-13T15:16:47Z</time>
      </trkpt>
      <trkpt lat="42.63519" lon="2.05567">
        <ele>1640</ele>
        <time>2014-06-13T15:17:27Z</time>
      </trkpt>
      <trkpt lat="42.63535" lon="2.0551">
        <ele>1643</ele>
        <time>2014-06-13T15:18:20Z</time>
      </trkpt>
      <trkpt lat="42.6354" lon="2.05447">
        <ele>1642</ele>
        <time>2014-06-13T15:18:58Z</time>
      </trkpt>
      <trkpt lat="42.63561" lon="2.05392">
        <ele>1641</ele>
        <time>2014-06-13T15:19:43Z</time>
      </trkpt>
      <trkpt lat="42.63591" lon="2.05346">
        <ele>1646</ele>
        <time>2014-06-13T15:20:21Z</time>
      </trkpt>
      <trkpt lat="42.63609" lon="2.0529">
        <ele>1647</ele>
        <time>2014-06-13T15:21:04Z</time>
      </trkpt>
      <trkpt lat="42.63626" lon="2.05233">
        <ele>1648</ele>
        <time>2014-06-13T15:21:50Z</time>
      </trkpt>
      <trkpt lat="42.63642" lon="2.05176">
        <ele>1650</ele>
        <time>2014-06-13T15:22:33Z</time>
      </trkpt>
      <trkpt lat="42.63649" lon="2.05113">
        <ele>1649</ele>
        <time>2014-06-13T15:23:18Z</time>
      </trkpt>
      <trkpt lat="42.63658" lon="2.05053">
        <ele>1650</ele>
        <time>2014-06-13T15:23:53Z</time>
      </trkpt>
      <trkpt lat="42.63671" lon="2.04995">
        <ele>1654</ele>
        <time>2014-06-13T15:24:38Z</time>
      </trkpt>
      <trkpt lat="42.63667" lon="2.04934">
        <ele>1650</ele>
        <time>2014-06-13T15:25:22Z</time>
      </trkpt>
      <trkpt lat="42.63675" lon="2.04873">
        <ele>1659</ele>
        <time>2014-06-13T15:25:56Z</time>
      </trkpt>
      <trkpt lat="42.63666" lon="2.0483">
        <ele>1652</ele>
        <time>2014-06-14T07:07:48Z</time>
      </trkpt>
      <trkpt lat="42.63648" lon="2.04856">
        <ele>1655</ele>
        <time>2014-06-14T07:07:49Z</time>
      </trkpt>
      <trkpt lat="42.63666" lon="2.04831">
        <ele>1651</ele>
        <time>2014-06-14T07:07:59Z</time>
      </trkpt>
      <trkpt lat="42.63666" lon="2.04831">
        <ele>1651</ele>
        <time>2014-06-14T07:07:59Z</time>
      </trkpt>
      <trkpt lat="42.63666" lon="2.04831">
        <ele>1651</ele>
        <time>2014-06-14T07:08:00Z</time>
      </trkpt>
      <trkpt lat="42.63666" lon="2.04831">
        <ele>1651</ele>
        <time>2014-06-14T07:08:12Z</time>
      </trkpt>
      <trkpt lat="42.63666" lon="2.04831">
        <ele>1651</ele>
        <time>2014-06-14T07:08:12Z</time>
      </trkpt>
      <trkpt lat="42.63666" lon="2.04831">
        <ele>1651</ele>
        <time>2014-06-14T07:08:13Z</time>
      </trkpt>
      <trkpt lat="42.63689" lon="2.04778">
        <ele>1659</ele>
        <time>2014-06-14T07:11:25Z</time>
      </trkpt>
      <trkpt lat="42.637" lon="2.04719">
        <ele>1659</ele>
        <time>2014-06-14T07:12:04Z</time>
      </trkpt>
      <trkpt lat="42.63713" lon="2.04658">
        <ele>1660</ele>
        <time>2014-06-14T07:12:42Z</time>
      </trkpt>
      <trkpt lat="42.63739" lon="2.04607">
        <ele>1662</ele>
        <time>2014-06-14T07:13:17Z</time>
      </trkpt>
      <trkpt lat="42.63754" lon="2.0455">
        <ele>1674</ele>
        <time>2014-06-14T07:13:59Z</time>
      </trkpt>
      <trkpt lat="42.63762" lon="2.04485">
        <ele>1671</ele>
        <time>2014-06-14T07:14:54Z</time>
      </trkpt>
      <trkpt lat="42.63778" lon="2.04425">
        <ele>1674</ele>
        <time>2014-06-14T07:15:42Z</time>
      </trkpt>
      <trkpt lat="42.63779" lon="2.04363">
        <ele>1679</ele>
        <time>2014-06-14T07:16:26Z</time>
      </trkpt>
      <trkpt lat="42.63798" lon="2.04308">
        <ele>1683</ele>
        <time>2014-06-14T07:17:08Z</time>
      </trkpt>
      <trkpt lat="42.63815" lon="2.04251">
        <ele>1685</ele>
        <time>2014-06-14T07:17:51Z</time>
      </trkpt>
      <trkpt lat="42.6384" lon="2.042">
        <ele>1693</ele>
        <time>2014-06-14T07:18:30Z</time>
      </trkpt>
      <trkpt lat="42.63872" lon="2.04157">
        <ele>1694</ele>
        <time>2014-06-14T07:19:14Z</time>
      </trkpt>
      <trkpt lat="42.63903" lon="2.04113">
        <ele>1699</ele>
        <time>2014-06-14T07:20:04Z</time>
      </trkpt>
      <trkpt lat="42.63915" lon="2.04053">
        <ele>1700</ele>
        <time>2014-06-14T07:21:04Z</time>
      </trkpt>
      <trkpt lat="42.63931" lon="2.03994">
        <ele>1714</ele>
        <time>2014-06-14T07:22:04Z</time>
      </trkpt>
      <trkpt lat="42.63954" lon="2.03942">
        <ele>1720</ele>
        <time>2014-06-14T07:23:00Z</time>
      </trkpt>
      <trkpt lat="42.63976" lon="2.03887">
        <ele>1724</ele>
        <time>2014-06-14T07:23:53Z</time>
      </trkpt>
      <trkpt lat="42.63982" lon="2.03826">
        <ele>1733</ele>
        <time>2014-06-14T07:24:49Z</time>
      </trkpt>
      <trkpt lat="42.63992" lon="2.03763">
        <ele>1738</ele>
        <time>2014-06-14T07:25:54Z</time>
      </trkpt>
      <trkpt lat="42.63991" lon="2.03699">
        <ele>1739</ele>
        <time>2014-06-14T07:26:55Z</time>
      </trkpt>
      <trkpt lat="42.63989" lon="2.03637">
        <ele>1743</ele>
        <time>2014-06-14T07:27:37Z</time>
      </trkpt>
      <trkpt lat="42.63984" lon="2.03576">
        <ele>1749</ele>
        <time>2014-06-14T07:28:25Z</time>
      </trkpt>
      <trkpt lat="42.64002" lon="2.03519">
        <ele>1763</ele>
        <time>2014-06-14T07:29:05Z</time>
      </trkpt>
      <trkpt lat="42.64014" lon="2.0346">
        <ele>1763</ele>
        <time>2014-06-14T07:29:45Z</time>
      </trkpt>
      <trkpt lat="42.64022" lon="2.034">
        <ele>1761</ele>
        <time>2014-06-14T07:30:53Z</time>
      </trkpt>
      <trkpt lat="42.64029" lon="2.03339">
        <ele>1763</ele>
        <time>2014-06-14T07:31:47Z</time>
      </trkpt>
      <trkpt lat="42.64031" lon="2.03277">
        <ele>1767</ele>
        <time>2014-06-14T07:32:32Z</time>
      </trkpt>
      <trkpt lat="42.64042" lon="2.03218">
        <ele>1770</ele>
        <time>2014-06-14T07:33:13Z</time>
      </trkpt>
      <trkpt lat="42.64057" lon="2.03158">
        <ele>1771</ele>
        <time>2014-06-14T07:33:53Z</time>
      </trkpt>
      <trkpt lat="42.64075" lon="2.03101">
        <ele>1766</ele>
        <time>2014-06-14T07:34:32Z</time>
      </trkpt>
      <trkpt lat="42.64103" lon="2.03052">
        <ele>1765</ele>
        <time>2014-06-14T07:35:18Z</time>
      </trkpt>
      <trkpt lat="42.64115" lon="2.02993">
        <ele>1763</ele>
        <time>2014-06-14T07:35:57Z</time>
      </trkpt>
      <trkpt lat="42.64133" lon="2.02937">
        <ele>1767</ele>
        <time>2014-06-14T07:36:42Z</time>
      </trkpt>
      <trkpt lat="42.64151" lon="2.02881">
        <ele>1773</ele>
        <time>2014-06-14T07:37:22Z</time>
      </trkpt>
      <trkpt lat="42.64165" lon="2.02822">
        <ele>1778</ele>
        <time>2014-06-14T07:38:28Z</time>
      </trkpt>
      <trkpt lat="42.64183" lon="2.02764">
        <ele>1788</ele>
        <time>2014-06-14T07:39:27Z</time>
      </trkpt>
      <trkpt lat="42.64185" lon="2.02703">
        <ele>1789</ele>
        <time>2014-06-14T07:41:01Z</time>
      </trkpt>
      <trkpt lat="42.64199" lon="2.02645">
        <ele>1788</ele>
        <time>2014-06-14T07:42:01Z</time>
      </trkpt>
      <trkpt lat="42.6422" lon="2.02589">
        <ele>1790</ele>
        <time>2014-06-14T07:43:02Z</time>
      </trkpt>
      <trkpt lat="42.64247" lon="2.02538">
        <ele>1789</ele>
        <time>2014-06-14T07:44:12Z</time>
      </trkpt>
      <trkpt lat="42.64279" lon="2.02493">
        <ele>1801</ele>
        <time>2014-06-14T07:45:10Z</time>
      </trkpt>
      <trkpt lat="42.64317" lon="2.02456">
        <ele>1807</ele>
        <time>2014-06-14T07:46:03Z</time>
      </trkpt>
      <trkpt lat="42.64346" lon="2.02408">
        <ele>1812</ele>
        <time>2014-06-14T07:47:26Z</time>
      </trkpt>
      <trkpt lat="42.64369" lon="2.02355">
        <ele>1813</ele>
        <time>2014-06-14T07:48:12Z</time>
      </trkpt>
      <trkpt lat="42.64384" lon="2.02296">
        <ele>1808</ele>
        <time>2014-06-14T07:49:04Z</time>
      </trkpt>
      <trkpt lat="42.64419" lon="2.02254">
        <ele>1808</ele>
        <time>2014-06-14T07:51:10Z</time>
      </trkpt>
      <trkpt lat="42.64424" lon="2.02192">
        <ele>1814</ele>
        <time>2014-06-14T07:55:20Z</time>
      </trkpt>
      <trkpt lat="42.64439" lon="2.02135">
        <ele>1826</ele>
        <time>2014-06-14T07:56:50Z</time>
      </trkpt>
      <trkpt lat="42.64467" lon="2.02083">
        <ele>1850</ele>
        <time>2014-06-14T08:03:58Z</time>
      </trkpt>
      <trkpt lat="42.64489" lon="2.02029">
        <ele>1858</ele>
        <time>2014-06-14T08:06:05Z</time>
      </trkpt>
      <trkpt lat="42.64491" lon="2.01965">
        <ele>1874</ele>
        <time>2014-06-14T08:08:04Z</time>
      </trkpt>
      <trkpt lat="42.64462" lon="2.01918">
        <ele>1877</ele>
        <time>2014-06-14T08:12:09Z</time>
      </trkpt>
      <trkpt lat="42.64478" lon="2.0186">
        <ele>1888</ele>
        <time>2014-06-14T08:17:40Z</time>
      </trkpt>
      <trkpt lat="42.64489" lon="2.01801">
        <ele>1897</ele>
        <time>2014-06-14T08:18:26Z</time>
      </trkpt>
      <trkpt lat="42.64505" lon="2.01743">
        <ele>1900</ele>
        <time>2014-06-14T08:19:09Z</time>
      </trkpt>
      <trkpt lat="42.64528" lon="2.0169">
        <ele>1903</ele>
        <time>2014-06-14T08:19:54Z</time>
      </trkpt>
      <trkpt lat="42.64562" lon="2.01649">
        <ele>1908</ele>
        <time>2014-06-14T08:20:35Z</time>
      </trkpt>
      <trkpt lat="42.64568" lon="2.01588">
        <ele>1913</ele>
        <time>2014-06-14T08:21:33Z</time>
      </trkpt>
      <trkpt lat="42.64558" lon="2.01527">
        <ele>1918</ele>
        <time>2014-06-14T08:23:28Z</time>
      </trkpt>
      <trkpt lat="42.6455" lon="2.01466">
        <ele>1929</ele>
        <time>2014-06-14T08:24:38Z</time>
      </trkpt>
      <trkpt lat="42.64561" lon="2.01406">
        <ele>1942</ele>
        <time>2014-06-14T08:27:10Z</time>
      </trkpt>
      <trkpt lat="42.64573" lon="2.01346">
        <ele>1951</ele>
        <time>2014-06-14T08:28:08Z</time>
      </trkpt>
      <trkpt lat="42.64578" lon="2.01286">
        <ele>1970</ele>
        <time>2014-06-14T08:29:47Z</time>
      </trkpt>
      <trkpt lat="42.64553" lon="2.01234">
        <ele>1986</ele>
        <time>2014-06-14T08:39:50Z</time>
      </trkpt>
      <trkpt lat="42.64569" lon="2.01176">
        <ele>1985</ele>
        <time>2014-06-14T08:43:56Z</time>
      </trkpt>
      <trkpt lat="42.64553" lon="2.01118">
        <ele>2001</ele>
        <time>2014-06-14T08:45:39Z</time>
      </trkpt>
      <trkpt lat="42.6456" lon="2.01057">
        <ele>2010</ele>
        <time>2014-06-14T08:50:58Z</time>
      </trkpt>
      <trkpt lat="42.64554" lon="2.00996">
        <ele>2020</ele>
        <time>2014-06-14T08:52:05Z</time>
      </trkpt>
      <trkpt lat="42.64515" lon="2.00963">
        <ele>2026</ele>
        <time>2014-06-14T08:53:14Z</time>
      </trkpt>
      <trkpt lat="42.64472" lon="2.00944">
        <ele>2037</ele>
        <time>2014-06-14T08:55:22Z</time>
      </trkpt>
      <trkpt lat="42.6443" lon="2.00921">
        <ele>2045</ele>
        <time>2014-06-14T08:57:06Z</time>
      </trkpt>
      <trkpt lat="42.64385" lon="2.00909">
        <ele>2066</ele>
        <time>2014-06-14T08:58:48Z</time>
      </trkpt>
      <trkpt lat="42.64363" lon="2.00855">
        <ele>2076</ele>
        <time>2014-06-14T09:00:20Z</time>
      </trkpt>
      <trkpt lat="42.64317" lon="2.00849">
        <ele>2085</ele>
        <time>2014-06-14T09:04:55Z</time>
      </trkpt>
      <trkpt lat="42.64276" lon="2.00826">
        <ele>2098</ele>
        <time>2014-06-14T09:06:58Z</time>
      </trkpt>
      <trkpt lat="42.6424" lon="2.00788">
        <ele>2101</ele>
        <time>2014-06-14T09:08:21Z</time>
      </trkpt>
      <trkpt lat="42.64213" lon="2.00739">
        <ele>2104</ele>
        <time>2014-06-14T09:09:29Z</time>
      </trkpt>
      <trkpt lat="42.64195" lon="2.00683">
        <ele>2105</ele>
        <time>2014-06-14T09:10:20Z</time>
      </trkpt>
      <trkpt lat="42.64153" lon="2.00705">
        <ele>2106</ele>
        <time>2014-06-14T09:11:51Z</time>
      </trkpt>
      <trkpt lat="42.64167" lon="2.00764">
        <ele>2100</ele>
        <time>2014-06-14T09:13:04Z</time>
      </trkpt>
      <trkpt lat="42.6414" lon="2.00714">
        <ele>2106</ele>
        <time>2014-06-14T09:15:10Z</time>
      </trkpt>
      <trkpt lat="42.64094" lon="2.00717">
        <ele>2108</ele>
        <time>2014-06-14T09:17:08Z</time>
      </trkpt>
      <trkpt lat="42.64051" lon="2.00697">
        <ele>2121</ele>
        <time>2014-06-14T09:18:30Z</time>
      </trkpt>
      <trkpt lat="42.64006" lon="2.00682">
        <ele>2127</ele>
        <time>2014-06-14T09:19:44Z</time>
      </trkpt>
      <trkpt lat="42.63965" lon="2.00657">
        <ele>2141</ele>
        <time>2014-06-14T09:20:25Z</time>
      </trkpt>
      <trkpt lat="42.63949" lon="2.00598">
        <ele>2145</ele>
        <time>2014-06-14T09:22:09Z</time>
      </trkpt>
      <trkpt lat="42.639" lon="2.00592">
        <ele>2154</ele>
        <time>2014-06-14T09:24:51Z</time>
      </trkpt>
      <trkpt lat="42.6386" lon="2.00622">
        <ele>2159</ele>
        <time>2014-06-14T09:35:11Z</time>
      </trkpt>
      <trkpt lat="42.63837" lon="2.00674">
        <ele>2156</ele>
        <time>2014-06-14T09:36:49Z</time>
      </trkpt>
      <trkpt lat="42.63803" lon="2.00716">
        <ele>2167</ele>
        <time>2014-06-14T09:39:52Z</time>
      </trkpt>
      <trkpt lat="42.63763" lon="2.00744">
        <ele>2173</ele>
        <time>2014-06-14T09:42:05Z</time>
      </trkpt>
      <trkpt lat="42.63726" lon="2.00706">
        <ele>2191</ele>
        <time>2014-06-14T09:44:30Z</time>
      </trkpt>
      <trkpt lat="42.63707" lon="2.00651">
        <ele>2203</ele>
        <time>2014-06-14T09:47:48Z</time>
      </trkpt>
      <trkpt lat="42.63661" lon="2.00646">
        <ele>2213</ele>
        <time>2014-06-14T09:51:11Z</time>
      </trkpt>
      <trkpt lat="42.63616" lon="2.00635">
        <ele>2217</ele>
        <time>2014-06-14T09:52:11Z</time>
      </trkpt>
      <trkpt lat="42.63574" lon="2.00615">
        <ele>2227</ele>
        <time>2014-06-14T09:53:53Z</time>
      </trkpt>
      <trkpt lat="42.63537" lon="2.00579">
        <ele>2238</ele>
        <time>2014-06-14T09:56:21Z</time>
      </trkpt>
      <trkpt lat="42.63492" lon="2.00575">
        <ele>2247</ele>
        <time>2014-06-14T09:58:22Z</time>
      </trkpt>
      <trkpt lat="42.63456" lon="2.00538">
        <ele>2261</ele>
        <time>2014-06-14T10:00:00Z</time>
      </trkpt>
      <trkpt lat="42.63426" lon="2.00493">
        <ele>2278</ele>
        <time>2014-06-14T10:03:10Z</time>
      </trkpt>
      <trkpt lat="42.63405" lon="2.00439">
        <ele>2297</ele>
        <time>2014-06-14T10:07:37Z</time>
      </trkpt>
      <trkpt lat="42.63368" lon="2.00403">
        <ele>2312</ele>
        <time>2014-06-14T10:09:26Z</time>
      </trkpt>
      <trkpt lat="42.63338" lon="2.00357">
        <ele>2320</ele>
        <time>2014-06-14T10:13:45Z</time>
      </trkpt>
      <trkpt lat="42.63294" lon="2.00375">
        <ele>2328</ele>
        <time>2014-06-14T10:16:13Z</time>
      </trkpt>
      <trkpt lat="42.63249" lon="2.00374">
        <ele>2331</ele>
        <time>2014-06-14T10:17:18Z</time>
      </trkpt>
      <trkpt lat="42.6321" lon="2.00405">
        <ele>2330</ele>
        <time>2014-06-14T10:18:15Z</time>
      </trkpt>
      <trkpt lat="42.63169" lon="2.00433">
        <ele>2325</ele>
        <time>2014-06-14T10:19:08Z</time>
      </trkpt>
      <trkpt lat="42.63133" lon="2.00468">
        <ele>2321</ele>
        <time>2014-06-14T10:19:56Z</time>
      </trkpt>
      <trkpt lat="42.63113" lon="2.00524">
        <ele>2319</ele>
        <time>2014-06-14T10:20:42Z</time>
      </trkpt>
      <trkpt lat="42.63073" lon="2.00553">
        <ele>2313</ele>
        <time>2014-06-14T10:21:29Z</time>
      </trkpt>
      <trkpt lat="42.63032" lon="2.0058">
        <ele>2311</ele>
        <time>2014-06-14T10:22:11Z</time>
      </trkpt>
      <trkpt lat="42.6299" lon="2.00602">
        <ele>2305</ele>
        <time>2014-06-14T10:23:08Z</time>
      </trkpt>
      <trkpt lat="42.62959" lon="2.00646">
        <ele>2304</ele>
        <time>2014-06-14T10:23:49Z</time>
      </trkpt>
      <trkpt lat="42.62935" lon="2.00699">
        <ele>2304</ele>
        <time>2014-06-14T10:24:29Z</time>
      </trkpt>
      <trkpt lat="42.6291" lon="2.00751">
        <ele>2301</ele>
        <time>2014-06-14T10:25:15Z</time>
      </trkpt>
      <trkpt lat="42.62881" lon="2.00798">
        <ele>2301</ele>
        <time>2014-06-14T10:26:14Z</time>
      </trkpt>
      <trkpt lat="42.62852" lon="2.00846">
        <ele>2303</ele>
        <time>2014-06-14T10:27:23Z</time>
      </trkpt>
      <trkpt lat="42.6283" lon="2.009">
        <ele>2299</ele>
        <time>2014-06-14T10:28:14Z</time>
      </trkpt>
      <trkpt lat="42.6279" lon="2.0093">
        <ele>2300</ele>
        <time>2014-06-14T10:29:08Z</time>
      </trkpt>
      <trkpt lat="42.62764" lon="2.00981">
        <ele>2299</ele>
        <time>2014-06-14T10:29:50Z</time>
      </trkpt>
      <trkpt lat="42.62738" lon="2.01031">
        <ele>2292</ele>
        <time>2014-06-14T10:30:51Z</time>
      </trkpt>
      <trkpt lat="42.62698" lon="2.01061">
        <ele>2289</ele>
        <time>2014-06-14T10:31:35Z</time>
      </trkpt>
      <trkpt lat="42.62654" lon="2.01049">
        <ele>2277</ele>
        <time>2014-06-14T10:33:11Z</time>
      </trkpt>
      <trkpt lat="42.62609" lon="2.01035">
        <ele>2274</ele>
        <time>2014-06-14T10:34:00Z</time>
      </trkpt>
      <trkpt lat="42.62565" lon="2.01019">
        <ele>2267</ele>
        <time>2014-06-14T10:34:44Z</time>
      </trkpt>
      <trkpt lat="42.62528" lon="2.01059">
        <ele>2267</ele>
        <time>2014-06-14T10:35:49Z</time>
      </trkpt>
      <trkpt lat="42.62492" lon="2.01095">
        <ele>2269</ele>
        <time>2014-06-14T10:36:43Z</time>
      </trkpt>
      <trkpt lat="42.62447" lon="2.01107">
        <ele>2271</ele>
        <time>2014-06-14T10:37:55Z</time>
      </trkpt>
      <trkpt lat="42.62413" lon="2.01149">
        <ele>2271</ele>
        <time>2014-06-14T10:40:21Z</time>
      </trkpt>
      <trkpt lat="42.62377" lon="2.01188">
        <ele>2276</ele>
        <time>2014-06-14T10:41:16Z</time>
      </trkpt>
      <trkpt lat="42.62332" lon="2.0119">
        <ele>2267</ele>
        <time>2014-06-14T10:42:21Z</time>
      </trkpt>
      <trkpt lat="42.62287" lon="2.01202">
        <ele>2265</ele>
        <time>2014-06-14T10:43:25Z</time>
      </trkpt>
      <trkpt lat="42.62247" lon="2.01172">
        <ele>2256</ele>
        <time>2014-06-14T10:45:07Z</time>
      </trkpt>
      <trkpt lat="42.62227" lon="2.01117">
        <ele>2250</ele>
        <time>2014-06-14T10:45:56Z</time>
      </trkpt>
      <trkpt lat="42.62227" lon="2.01117">
        <ele>2250</ele>
      </trkpt>
      <trkpt lat="42.62227" lon="2.01117">
        <ele>2250</ele>
      </trkpt>
      <trkpt lat="42.62184" lon="2.01113">
        <ele>2248</ele>
      </trkpt>
      <trkpt lat="42.62164" lon="2.01152">
        <ele>2249</ele>
      </trkpt>
      <trkpt lat="42.62099" lon="2.01147">
        <ele>2248</ele>
      </trkpt>
      <trkpt lat="42.62047" lon="2.01135">
        <ele>2246</ele>
      </trkpt>
      <trkpt lat="42.62009" lon="2.01115">
        <ele>2245</ele>
      </trkpt>
      <trkpt lat="42.62" lon="2.01102">
        <ele>2241</ele>
      </trkpt>
      <trkpt lat="42.62004" lon="2.0113">
        <ele>2245</ele>
      </trkpt>
      <trkpt lat="42.61974" lon="2.01079">
        <ele>2242</ele>
      </trkpt>
      <trkpt lat="42.61954" lon="2.01029">
        <ele>2242</ele>
      </trkpt>
      <trkpt lat="42.61927" lon="2.00993">
        <ele>2245</ele>
      </trkpt>
      <trkpt lat="42.61891" lon="2.00959">
        <ele>2244</ele>
      </trkpt>
      <trkpt lat="42.61851" lon="2.00959">
        <ele>2242</ele>
      </trkpt>
      <trkpt lat="42.61813" lon="2.00954">
        <ele>2240</ele>
      </trkpt>
      <trkpt lat="42.61798" lon="2.00993">
        <ele>2239</ele>
      </trkpt>
      <trkpt lat="42.61798" lon="2.01012">
        <ele>2235</ele>
      </trkpt>
      <trkpt lat="42.61783" lon="2.01044">
        <ele>2235</ele>
      </trkpt>
      <trkpt lat="42.61783" lon="2.01079">
        <ele>2234</ele>
      </trkpt>
      <trkpt lat="42.61783" lon="2.01104">
        <ele>2231</ele>
      </trkpt>
      <trkpt lat="42.61766" lon="2.01122">
        <ele>2231</ele>
      </trkpt>
      <trkpt lat="42.61745" lon="2.0113">
        <ele>2230</ele>
      </trkpt>
      <trkpt lat="42.61717" lon="2.01124">
        <ele>2230</ele>
      </trkpt>
      <trkpt lat="42.617" lon="2.01122">
        <ele>2230</ele>
      </trkpt>
      <trkpt lat="42.61674" lon="2.01083">
        <ele>2233</ele>
      </trkpt>
      <trkpt lat="42.61627" lon="2.01068">
        <ele>2229</ele>
      </trkpt>
      <trkpt lat="42.616" lon="2.01053">
        <ele>2227</ele>
      </trkpt>
      <trkpt lat="42.61576" lon="2.01027">
        <ele>2222</ele>
      </trkpt>
      <trkpt lat="42.61518" lon="2.01004">
        <ele>2220</ele>
      </trkpt>
      <trkpt lat="42.61445" lon="2.0098">
        <ele>2225</ele>
      </trkpt>
      <trkpt lat="42.61398" lon="2.00995">
        <ele>2224</ele>
      </trkpt>
      <trkpt lat="42.61341" lon="2.00991">
        <ele>2220</ele>
      </trkpt>
      <trkpt lat="42.61291" lon="2.00989">
        <ele>2217</ele>
      </trkpt>
      <trkpt lat="42.61248" lon="2.00961">
        <ele>2213</ele>
      </trkpt>
      <trkpt lat="42.6122" lon="2.00922">
        <ele>2214</ele>
      </trkpt>
      <trkpt lat="42.61163" lon="2.00892">
        <ele>2214</ele>
      </trkpt>
      <trkpt lat="42.61101" lon="2.00802">
        <ele>2224</ele>
      </trkpt>
      <trkpt lat="42.61051" lon="2.00716">
        <ele>2229</ele>
      </trkpt>
      <trkpt lat="42.61005" lon="2.00692">
        <ele>2233</ele>
      </trkpt>
      <trkpt lat="42.60962" lon="2.00705">
        <ele>2241</ele>
      </trkpt>
      <trkpt lat="42.60937" lon="2.00746">
        <ele>2242</ele>
      </trkpt>
      <trkpt lat="42.60899" lon="2.00823">
        <ele>2239</ele>
      </trkpt>
      <trkpt lat="42.60853" lon="2.00868">
        <ele>2236</ele>
      </trkpt>
      <trkpt lat="42.60804" lon="2.00873">
        <ele>2239</ele>
      </trkpt>
      <trkpt lat="42.60773" lon="2.00873">
        <ele>2239</ele>
      </trkpt>
      <trkpt lat="42.60725" lon="2.00823">
        <ele>2241</ele>
      </trkpt>
      <trkpt lat="42.60694" lon="2.0078">
        <ele>2241</ele>
      </trkpt>
      <trkpt lat="42.60634" lon="2.00744">
        <ele>2238</ele>
      </trkpt>
      <trkpt lat="42.60599" lon="2.00701">
        <ele>2238</ele>
      </trkpt>
      <trkpt lat="42.6058" lon="2.0066">
        <ele>2240</ele>
      </trkpt>
      <trkpt lat="42.60539" lon="2.00639">
        <ele>2243</ele>
      </trkpt>
      <trkpt lat="42.60506" lon="2.00643">
        <ele>2241</ele>
      </trkpt>
      <trkpt lat="42.6043" lon="2.00686">
        <ele>2239</ele>
      </trkpt>
      <trkpt lat="42.6037" lon="2.00692">
        <ele>2240</ele>
      </trkpt>
      <trkpt lat="42.6031" lon="2.00692">
        <ele>2236</ele>
      </trkpt>
      <trkpt lat="42.60283" lon="2.00688">
        <ele>2234</ele>
      </trkpt>
      <trkpt lat="42.60187" lon="2.00607">
        <ele>2235</ele>
      </trkpt>
      <trkpt lat="42.60155" lon="2.00626">
        <ele>2231</ele>
      </trkpt>
      <trkpt lat="42.60114" lon="2.00626">
        <ele>2232</ele>
      </trkpt>
      <trkpt lat="42.59999" lon="2.00692">
        <ele>2231</ele>
      </trkpt>
      <trkpt lat="42.59891" lon="2.00753">
        <ele>2232</ele>
      </trkpt>
      <trkpt lat="42.59834" lon="2.008">
        <ele>2231</ele>
      </trkpt>
      <trkpt lat="42.59695" lon="2.00871">
        <ele>2222</ele>
      </trkpt>
      <trkpt lat="42.59651" lon="2.00931">
        <ele>2220</ele>
      </trkpt>
      <trkpt lat="42.59566" lon="2.00969">
        <ele>2207</ele>
      </trkpt>
      <trkpt lat="42.59507" lon="2.01019">
        <ele>2206</ele>
      </trkpt>
      <trkpt lat="42.59459" lon="2.01068">
        <ele>2193</ele>
      </trkpt>
      <trkpt lat="42.59427" lon="2.01165">
        <ele>2184</ele>
      </trkpt>
      <trkpt lat="42.59392" lon="2.01218">
        <ele>2172</ele>
      </trkpt>
      <trkpt lat="42.59376" lon="2.01225">
        <ele>2171</ele>
      </trkpt>
      <trkpt lat="42.59345" lon="2.01218">
        <ele>2168</ele>
      </trkpt>
      <trkpt lat="42.59305" lon="2.01218">
        <ele>2155</ele>
      </trkpt>
      <trkpt lat="42.59261" lon="2.01238">
        <ele>2150</ele>
      </trkpt>
      <trkpt lat="42.59231" lon="2.01235">
        <ele>2141</ele>
      </trkpt>
      <trkpt lat="42.5919" lon="2.0121">
        <ele>2135</ele>
      </trkpt>
      <trkpt lat="42.59125" lon="2.01175">
        <ele>2125</ele>
      </trkpt>
      <trkpt lat="42.5907" lon="2.01162">
        <ele>2120</ele>
      </trkpt>
      <trkpt lat="42.59029" lon="2.01175">
        <ele>2120</ele>
      </trkpt>
      <trkpt lat="42.58994" lon="2.01175">
        <ele>2120</ele>
      </trkpt>
      <trkpt lat="42.58985" lon="2.01132">
        <ele>2118</ele>
      </trkpt>
      <trkpt lat="42.58931" lon="2.01083">
        <ele>2116</ele>
      </trkpt>
      <trkpt lat="42.58918" lon="2.01027">
        <ele>2117</ele>
      </trkpt>
      <trkpt lat="42.58921" lon="2.00967">
        <ele>2117</ele>
      </trkpt>
      <trkpt lat="42.58884" lon="2.00931">
        <ele>2117</ele>
      </trkpt>
      <trkpt lat="42.58827" lon="2.00817">
        <ele>2109</ele>
      </trkpt>
      <trkpt lat="42.58811" lon="2.00686">
        <ele>2106</ele>
      </trkpt>
      <trkpt lat="42.58811" lon="2.00605">
        <ele>2106</ele>
      </trkpt>
      <trkpt lat="42.58795" lon="2.00587">
        <ele>2106</ele>
      </trkpt>
      <trkpt lat="42.58776" lon="2.00574">
        <ele>2108</ele>
      </trkpt>
      <trkpt lat="42.58724" lon="2.00589">
        <ele>2106</ele>
      </trkpt>
      <trkpt lat="42.58677" lon="2.00602">
        <ele>2106</ele>
      </trkpt>
      <trkpt lat="42.58629" lon="2.00589">
        <ele>2104</ele>
      </trkpt>
      <trkpt lat="42.58582" lon="2.00579">
        <ele>2094</ele>
      </trkpt>
      <trkpt lat="42.58549" lon="2.00547">
        <ele>2085</ele>
      </trkpt>
      <trkpt lat="42.58522" lon="2.00551">
        <ele>2083</ele>
      </trkpt>
      <trkpt lat="42.58519" lon="2.0051">
        <ele>2078</ele>
      </trkpt>
      <trkpt lat="42.58519" lon="2.00448">
        <ele>2073</ele>
      </trkpt>
      <trkpt lat="42.58526" lon="2.00388">
        <ele>2071</ele>
      </trkpt>
      <trkpt lat="42.5852" lon="2.00351">
        <ele>2069</ele>
      </trkpt>
      <trkpt lat="42.58517" lon="2.00208">
        <ele>2071</ele>
      </trkpt>
      <trkpt lat="42.58495" lon="2.00158">
        <ele>2067</ele>
      </trkpt>
      <trkpt lat="42.58452" lon="2.00109">
        <ele>2063</ele>
      </trkpt>
      <trkpt lat="42.58417" lon="2.00042">
        <ele>2064</ele>
      </trkpt>
      <trkpt lat="42.5841" lon="1.99995">
        <ele>2058</ele>
      </trkpt>
      <trkpt lat="42.58356" lon="1.9992">
        <ele>2053</ele>
      </trkpt>
      <trkpt lat="42.58324" lon="1.99884">
        <ele>2046</ele>
      </trkpt>
      <trkpt lat="42.58289" lon="1.99903">
        <ele>2043</ele>
      </trkpt>
      <trkpt lat="42.58253" lon="1.99931">
        <ele>2040</ele>
      </trkpt>
      <trkpt lat="42.58212" lon="1.99931">
        <ele>2036</ele>
      </trkpt>
      <trkpt lat="42.5819" lon="1.99881">
        <ele>2039</ele>
      </trkpt>
      <trkpt lat="42.58212" lon="1.99834">
        <ele>2040</ele>
      </trkpt>
      <trkpt lat="42.58218" lon="1.99733">
        <ele>2049</ele>
      </trkpt>
      <trkpt lat="42.58222" lon="1.99686">
        <ele>2049</ele>
      </trkpt>
      <trkpt lat="42.58177" lon="1.99557">
        <ele>2050</ele>
      </trkpt>
      <trkpt lat="42.58122" lon="1.99527">
        <ele>2057</ele>
      </trkpt>
      <trkpt lat="42.58073" lon="1.99577">
        <ele>2053</ele>
      </trkpt>
      <trkpt lat="42.58034" lon="1.99611">
        <ele>2049</ele>
      </trkpt>
      <trkpt lat="42.58011" lon="1.9963">
        <ele>2049</ele>
      </trkpt>
      <trkpt lat="42.57989" lon="1.9963">
        <ele>2044</ele>
      </trkpt>
      <trkpt lat="42.5797" lon="1.99577">
        <ele>2048</ele>
      </trkpt>
      <trkpt lat="42.57943" lon="1.99521">
        <ele>2048</ele>
      </trkpt>
      <trkpt lat="42.57915" lon="1.99467">
        <ele>2041</ele>
      </trkpt>
      <trkpt lat="42.57874" lon="1.99444">
        <ele>2039</ele>
      </trkpt>
      <trkpt lat="42.57857" lon="1.99414">
        <ele>2039</ele>
      </trkpt>
      <trkpt lat="42.57803" lon="1.99386">
        <ele>2033</ele>
      </trkpt>
      <trkpt lat="42.57735" lon="1.9939">
        <ele>2031</ele>
      </trkpt>
      <trkpt lat="42.57702" lon="1.99396">
        <ele>2030</ele>
      </trkpt>
      <trkpt lat="42.57686" lon="1.99392">
        <ele>2030</ele>
      </trkpt>
      <trkpt lat="42.57662" lon="1.99424">
        <ele>2022</ele>
      </trkpt>
      <trkpt lat="42.57643" lon="1.99414">
        <ele>2028</ele>
      </trkpt>
      <trkpt lat="42.57616" lon="1.99414">
        <ele>2029</ele>
      </trkpt>
      <trkpt lat="42.57572" lon="1.99399">
        <ele>2027</ele>
      </trkpt>
      <trkpt lat="42.57481" lon="1.99356">
        <ele>2025</ele>
      </trkpt>
      <trkpt lat="42.57398" lon="1.99289">
        <ele>2038</ele>
      </trkpt>
      <trkpt lat="42.5736" lon="1.99291">
        <ele>2037</ele>
      </trkpt>
      <trkpt lat="42.57311" lon="1.99261">
        <ele>2043</ele>
      </trkpt>
      <trkpt lat="42.57258" lon="1.99278">
        <ele>2041</ele>
      </trkpt>
      <trkpt lat="42.57234" lon="1.99306">
        <ele>2036</ele>
      </trkpt>
      <trkpt lat="42.57225" lon="1.99332">
        <ele>2034</ele>
      </trkpt>
      <trkpt lat="42.57202" lon="1.99332">
        <ele>2033</ele>
      </trkpt>
      <trkpt lat="42.57185" lon="1.99313">
        <ele>2033</ele>
      </trkpt>
      <trkpt lat="42.57131" lon="1.99257">
        <ele>2035</ele>
      </trkpt>
      <trkpt lat="42.57101" lon="1.99257">
        <ele>2035</ele>
      </trkpt>
      <trkpt lat="42.57059" lon="1.99293">
        <ele>2034</ele>
      </trkpt>
      <trkpt lat="42.56961" lon="1.99394">
        <ele>2027</ele>
      </trkpt>
      <trkpt lat="42.56945" lon="1.99411">
        <ele>2028</ele>
      </trkpt>
      <trkpt lat="42.56927" lon="1.99401">
        <ele>2030</ele>
      </trkpt>
      <trkpt lat="42.56863" lon="1.99461">
        <ele>2022</ele>
      </trkpt>
      <trkpt lat="42.56806" lon="1.99435">
        <ele>2028</ele>
      </trkpt>
      <trkpt lat="42.56762" lon="1.99426">
        <ele>2030</ele>
      </trkpt>
      <trkpt lat="42.56752" lon="1.99439">
        <ele>2028</ele>
      </trkpt>
      <trkpt lat="42.56741" lon="1.99465">
        <ele>2026</ele>
      </trkpt>
      <trkpt lat="42.56717" lon="1.9948">
        <ele>2025</ele>
      </trkpt>
      <trkpt lat="42.56684" lon="1.99476">
        <ele>2028</ele>
      </trkpt>
      <trkpt lat="42.5667" lon="1.99482">
        <ele>2027</ele>
      </trkpt>
      <trkpt lat="42.56662" lon="1.99529">
        <ele>2021</ele>
      </trkpt>
      <trkpt lat="42.56632" lon="1.99547">
        <ele>2020</ele>
      </trkpt>
      <trkpt lat="42.56562" lon="1.99566">
        <ele>2026</ele>
      </trkpt>
      <trkpt lat="42.56545" lon="1.99577">
        <ele>2027</ele>
      </trkpt>
      <trkpt lat="42.56531" lon="1.9956">
        <ele>2028</ele>
      </trkpt>
      <trkpt lat="42.56507" lon="1.9956">
        <ele>2027</ele>
      </trkpt>
      <trkpt lat="42.56471" lon="1.99562">
        <ele>2031</ele>
      </trkpt>
      <trkpt lat="42.56439" lon="1.99534">
        <ele>2036</ele>
      </trkpt>
      <trkpt lat="42.56374" lon="1.99607">
        <ele>2029</ele>
      </trkpt>
      <trkpt lat="42.56324" lon="1.9965">
        <ele>2032</ele>
      </trkpt>
      <trkpt lat="42.56273" lon="1.99675">
        <ele>2022</ele>
      </trkpt>
      <trkpt lat="42.5618" lon="1.99712">
        <ele>2027</ele>
      </trkpt>
      <trkpt lat="42.5612" lon="1.99753">
        <ele>2020</ele>
      </trkpt>
      <trkpt lat="42.56095" lon="1.99755">
        <ele>2024</ele>
      </trkpt>
      <trkpt lat="42.56044" lon="1.99798">
        <ele>2022</ele>
      </trkpt>
      <trkpt lat="42.56016" lon="1.99781">
        <ele>2024</ele>
      </trkpt>
      <trkpt lat="42.56011" lon="1.99746">
        <ele>2031</ele>
      </trkpt>
      <trkpt lat="42.55968" lon="1.9974">
        <ele>2027</ele>
      </trkpt>
      <trkpt lat="42.55954" lon="1.99682">
        <ele>2028</ele>
      </trkpt>
      <trkpt lat="42.55989" lon="1.99635">
        <ele>2032</ele>
      </trkpt>
      <trkpt lat="42.56033" lon="1.99639">
        <ele>2044</ele>
      </trkpt>
      <trkpt lat="42.55993" lon="1.99641">
        <ele>2033</ele>
      </trkpt>
      <trkpt lat="42.55957" lon="1.99686">
        <ele>2028</ele>
      </trkpt>
      <trkpt lat="42.55962" lon="1.99742">
        <ele>2027</ele>
      </trkpt>
      <trkpt lat="42.56006" lon="1.99766">
        <ele>2026</ele>
      </trkpt>
      <trkpt lat="42.56014" lon="1.99793">
        <ele>2023</ele>
      </trkpt>
      <trkpt lat="42.55962" lon="1.9989">
        <ele>2017</ele>
      </trkpt>
      <trkpt lat="42.56028" lon="2.00323">
        <ele>2015</ele>
      </trkpt>
      <trkpt lat="42.55998" lon="2.00338">
        <ele>2014</ele>
      </trkpt>
      <trkpt lat="42.55989" lon="2.00368">
        <ele>2014</ele>
      </trkpt>
      <trkpt lat="42.55956" lon="2.00368">
        <ele>2014</ele>
      </trkpt>
      <trkpt lat="42.55938" lon="2.00334">
        <ele>2013</ele>
      </trkpt>
      <trkpt lat="42.55927" lon="2.00313">
        <ele>2011</ele>
      </trkpt>
      <trkpt lat="42.55894" lon="2.00326">
        <ele>2006</ele>
      </trkpt>
      <trkpt lat="42.55884" lon="2.00358">
        <ele>2007</ele>
      </trkpt>
      <trkpt lat="42.55862" lon="2.00351">
        <ele>2005</ele>
      </trkpt>
      <trkpt lat="42.55862" lon="2.00351">
        <ele>2005</ele>
      </trkpt>
      <trkpt lat="42.55862" lon="2.00351">
        <ele>2005</ele>
      </trkpt>
      <trkpt lat="42.55907" lon="2.00444">
        <ele>2011</ele>
      </trkpt>
      <trkpt lat="42.559" lon="2.00613">
        <ele>2020</ele>
      </trkpt>
      <trkpt lat="42.55824" lon="2.00671">
        <ele>2013</ele>
      </trkpt>
      <trkpt lat="42.5582" lon="2.0068">
        <ele>2012</ele>
      </trkpt>
      <trkpt lat="42.55782" lon="2.00708">
        <ele>2008</ele>
      </trkpt>
      <trkpt lat="42.55771" lon="2.00738">
        <ele>2006</ele>
      </trkpt>
      <trkpt lat="42.55771" lon="2.00759">
        <ele>2006</ele>
      </trkpt>
      <trkpt lat="42.55756" lon="2.00806">
        <ele>2006</ele>
      </trkpt>
      <trkpt lat="42.55775" lon="2.00845">
        <ele>2004</ele>
      </trkpt>
      <trkpt lat="42.55764" lon="2.0089">
        <ele>2001</ele>
      </trkpt>
      <trkpt lat="42.5576" lon="2.00944">
        <ele>1995</ele>
      </trkpt>
      <trkpt lat="42.5576" lon="2.00959">
        <ele>1995</ele>
      </trkpt>
      <trkpt lat="42.55718" lon="2.00993">
        <ele>1988</ele>
      </trkpt>
      <trkpt lat="42.55695" lon="2.01044">
        <ele>1985</ele>
      </trkpt>
      <trkpt lat="42.55688" lon="2.01126">
        <ele>1985</ele>
      </trkpt>
      <trkpt lat="42.55696" lon="2.01186">
        <ele>1988</ele>
      </trkpt>
      <trkpt lat="42.55696" lon="2.0122">
        <ele>1989</ele>
      </trkpt>
      <trkpt lat="42.55671" lon="2.01304">
        <ele>1989</ele>
      </trkpt>
      <trkpt lat="42.55666" lon="2.01375">
        <ele>1981</ele>
      </trkpt>
      <trkpt lat="42.55655" lon="2.0142">
        <ele>1982</ele>
      </trkpt>
      <trkpt lat="42.55652" lon="2.01491">
        <ele>1975</ele>
      </trkpt>
      <trkpt lat="42.55671" lon="2.01536">
        <ele>1970</ele>
      </trkpt>
      <trkpt lat="42.55706" lon="2.01583">
        <ele>1968</ele>
      </trkpt>
      <trkpt lat="42.55769" lon="2.01639">
        <ele>1949</ele>
      </trkpt>
      <trkpt lat="42.5584" lon="2.01643">
        <ele>1945</ele>
      </trkpt>
      <trkpt lat="42.55903" lon="2.01598">
        <ele>1956</ele>
      </trkpt>
      <trkpt lat="42.55935" lon="2.01619">
        <ele>1963</ele>
      </trkpt>
      <trkpt lat="42.55956" lon="2.0166">
        <ele>1960</ele>
      </trkpt>
      <trkpt lat="42.55962" lon="2.01727">
        <ele>1944</ele>
      </trkpt>
      <trkpt lat="42.55962" lon="2.0175">
        <ele>1941</ele>
      </trkpt>
      <trkpt lat="42.55979" lon="2.01774">
        <ele>1944</ele>
      </trkpt>
      <trkpt lat="42.56102" lon="2.01768">
        <ele>1987</ele>
      </trkpt>
      <trkpt lat="42.56139" lon="2.01725">
        <ele>1995</ele>
      </trkpt>
      <trkpt lat="42.56182" lon="2.01677">
        <ele>2012</ele>
      </trkpt>
      <trkpt lat="42.56204" lon="2.01617">
        <ele>2019</ele>
      </trkpt>
      <trkpt lat="42.56265" lon="2.01583">
        <ele>2041</ele>
      </trkpt>
      <trkpt lat="42.56276" lon="2.01549">
        <ele>2046</ele>
      </trkpt>
      <trkpt lat="42.56303" lon="2.01551">
        <ele>2049</ele>
      </trkpt>
      <trkpt lat="42.56347" lon="2.01499">
        <ele>2065</ele>
      </trkpt>
      <trkpt lat="42.56376" lon="2.01439">
        <ele>2070</ele>
      </trkpt>
      <trkpt lat="42.56474" lon="2.01356">
        <ele>2084</ele>
      </trkpt>
      <trkpt lat="42.56491" lon="2.0131">
        <ele>2079</ele>
      </trkpt>
      <trkpt lat="42.56539" lon="2.01291">
        <ele>2089</ele>
      </trkpt>
      <trkpt lat="42.56581" lon="2.01308">
        <ele>2096</ele>
      </trkpt>
      <trkpt lat="42.56597" lon="2.01353">
        <ele>2115</ele>
      </trkpt>
      <trkpt lat="42.56596" lon="2.01405">
        <ele>2119</ele>
      </trkpt>
      <trkpt lat="42.56602" lon="2.01437">
        <ele>2127</ele>
      </trkpt>
      <trkpt lat="42.56618" lon="2.01489">
        <ele>2133</ele>
      </trkpt>
      <trkpt lat="42.56643" lon="2.01559">
        <ele>2145</ele>
      </trkpt>
      <trkpt lat="42.56676" lon="2.01604">
        <ele>2154</ele>
      </trkpt>
      <trkpt lat="42.567" lon="2.01714">
        <ele>2172</ele>
      </trkpt>
      <trkpt lat="42.56741" lon="2.01798">
        <ele>2182</ele>
      </trkpt>
      <trkpt lat="42.5673" lon="2.01832">
        <ele>2184</ele>
      </trkpt>
      <trkpt lat="42.56735" lon="2.01843">
        <ele>2188</ele>
      </trkpt>
      <trkpt lat="42.56735" lon="2.01864">
        <ele>2189</ele>
      </trkpt>
      <trkpt lat="42.56754" lon="2.01907">
        <ele>2192</ele>
      </trkpt>
      <trkpt lat="42.5676" lon="2.01974">
        <ele>2194</ele>
      </trkpt>
      <trkpt lat="42.56806" lon="2.02038">
        <ele>2192</ele>
      </trkpt>
      <trkpt lat="42.56812" lon="2.02085">
        <ele>2188</ele>
      </trkpt>
      <trkpt lat="42.56831" lon="2.02149">
        <ele>2183</ele>
      </trkpt>
      <trkpt lat="42.56842" lon="2.02195">
        <ele>2171</ele>
      </trkpt>
      <trkpt lat="42.56867" lon="2.02242">
        <ele>2167</ele>
      </trkpt>
      <trkpt lat="42.56891" lon="2.02274">
        <ele>2159</ele>
      </trkpt>
      <trkpt lat="42.56861" lon="2.02401">
        <ele>2159</ele>
      </trkpt>
      <trkpt lat="42.56834" lon="2.02504">
        <ele>2157</ele>
      </trkpt>
      <trkpt lat="42.56793" lon="2.02546">
        <ele>2155</ele>
      </trkpt>
      <trkpt lat="42.56774" lon="2.02564">
        <ele>2154</ele>
      </trkpt>
      <trkpt lat="42.56749" lon="2.02576">
        <ele>2152</ele>
      </trkpt>
      <trkpt lat="42.56709" lon="2.02617">
        <ele>2145</ele>
      </trkpt>
      <trkpt lat="42.56665" lon="2.02682">
        <ele>2138</ele>
      </trkpt>
      <trkpt lat="42.5663" lon="2.02735">
        <ele>2135</ele>
      </trkpt>
      <trkpt lat="42.56621" lon="2.0284">
        <ele>2132</ele>
      </trkpt>
      <trkpt lat="42.56597" lon="2.0289">
        <ele>2131</ele>
      </trkpt>
      <trkpt lat="42.56528" lon="2.02993">
        <ele>2126</ele>
      </trkpt>
      <trkpt lat="42.56493" lon="2.03068">
        <ele>2118</ele>
      </trkpt>
      <trkpt lat="42.5645" lon="2.0319">
        <ele>2110</ele>
      </trkpt>
      <trkpt lat="42.56384" lon="2.03261">
        <ele>2103</ele>
      </trkpt>
      <trkpt lat="42.5633" lon="2.03308">
        <ele>2102</ele>
      </trkpt>
      <trkpt lat="42.56305" lon="2.03364">
        <ele>2092</ele>
      </trkpt>
      <trkpt lat="42.5627" lon="2.03411">
        <ele>2087</ele>
      </trkpt>
      <trkpt lat="42.56262" lon="2.03473">
        <ele>2078</ele>
      </trkpt>
      <trkpt lat="42.56234" lon="2.03694">
        <ele>2064</ele>
      </trkpt>
      <trkpt lat="42.56215" lon="2.03821">
        <ele>2061</ele>
      </trkpt>
      <trkpt lat="42.56193" lon="2.03948">
        <ele>2054</ele>
      </trkpt>
      <trkpt lat="42.56177" lon="2.0401">
        <ele>2047</ele>
      </trkpt>
      <trkpt lat="42.56137" lon="2.04063">
        <ele>2050</ele>
      </trkpt>
      <trkpt lat="42.56129" lon="2.04115">
        <ele>2039</ele>
      </trkpt>
      <trkpt lat="42.56096" lon="2.04166">
        <ele>2037</ele>
      </trkpt>
      <trkpt lat="42.56071" lon="2.04308">
        <ele>2019</ele>
      </trkpt>
      <trkpt lat="42.56052" lon="2.04345">
        <ele>2015</ele>
      </trkpt>
      <trkpt lat="42.56008" lon="2.04342">
        <ele>2014</ele>
      </trkpt>
      <trkpt lat="42.5596" lon="2.04312">
        <ele>2005</ele>
      </trkpt>
      <trkpt lat="42.55895" lon="2.04295">
        <ele>1992</ele>
      </trkpt>
      <trkpt lat="42.55869" lon="2.04267">
        <ele>1989</ele>
      </trkpt>
      <trkpt lat="42.55837" lon="2.04197">
        <ele>1982</ele>
      </trkpt>
      <trkpt lat="42.55815" lon="2.04154">
        <ele>1970</ele>
      </trkpt>
      <trkpt lat="42.55777" lon="2.04154">
        <ele>1965</ele>
      </trkpt>
      <trkpt lat="42.5575" lon="2.04184">
        <ele>1958</ele>
      </trkpt>
      <trkpt lat="42.5575" lon="2.04188">
        <ele>1958</ele>
      </trkpt>
      <trkpt lat="42.55748" lon="2.04188">
        <ele>1958</ele>
      </trkpt>
      <trkpt lat="42.55729" lon="2.04201">
        <ele>1958</ele>
      </trkpt>
      <trkpt lat="42.55729" lon="2.04201">
        <ele>1958</ele>
      </trkpt>
      <trkpt lat="42.55688" lon="2.04187">
        <ele>1955</ele>
      </trkpt>
      <trkpt lat="42.55653" lon="2.04247">
        <ele>1952</ele>
      </trkpt>
      <trkpt lat="42.55621" lon="2.04281">
        <ele>1952</ele>
      </trkpt>
      <trkpt lat="42.55621" lon="2.04328">
        <ele>1952</ele>
      </trkpt>
      <trkpt lat="42.55615" lon="2.04346">
        <ele>1949</ele>
      </trkpt>
      <trkpt lat="42.55615" lon="2.04423">
        <ele>1941</ele>
      </trkpt>
      <trkpt lat="42.55615" lon="2.0447">
        <ele>1938</ele>
      </trkpt>
      <trkpt lat="42.55574" lon="2.04607">
        <ele>1932</ele>
      </trkpt>
      <trkpt lat="42.55536" lon="2.0465">
        <ele>1932</ele>
      </trkpt>
      <trkpt lat="42.55561" lon="2.04762">
        <ele>1933</ele>
      </trkpt>
      <trkpt lat="42.55555" lon="2.04831">
        <ele>1934</ele>
      </trkpt>
      <trkpt lat="42.55542" lon="2.04856">
        <ele>1935</ele>
      </trkpt>
      <trkpt lat="42.55542" lon="2.04912">
        <ele>1936</ele>
      </trkpt>
      <trkpt lat="42.5558" lon="2.04964">
        <ele>1933</ele>
      </trkpt>
      <trkpt lat="42.55618" lon="2.04985">
        <ele>1929</ele>
      </trkpt>
      <trkpt lat="42.55653" lon="2.04946">
        <ele>1929</ele>
      </trkpt>
      <trkpt lat="42.5571" lon="2.04981">
        <ele>1926</ele>
      </trkpt>
      <trkpt lat="42.55688" lon="2.05041">
        <ele>1922</ele>
      </trkpt>
      <trkpt lat="42.55757" lon="2.05049">
        <ele>1922</ele>
      </trkpt>
      <trkpt lat="42.55786" lon="2.05071">
        <ele>1922</ele>
      </trkpt>
      <trkpt lat="42.55827" lon="2.05114">
        <ele>1917</ele>
      </trkpt>
      <trkpt lat="42.55881" lon="2.05118">
        <ele>1920</ele>
      </trkpt>
      <trkpt lat="42.55893" lon="2.05183">
        <ele>1916</ele>
      </trkpt>
      <trkpt lat="42.55909" lon="2.05221">
        <ele>1915</ele>
      </trkpt>
      <trkpt lat="42.55912" lon="2.0529">
        <ele>1912</ele>
      </trkpt>
      <trkpt lat="42.55906" lon="2.05384">
        <ele>1910</ele>
      </trkpt>
      <trkpt lat="42.55896" lon="2.05449">
        <ele>1915</ele>
      </trkpt>
      <trkpt lat="42.5571" lon="2.05564">
        <ele>1885</ele>
      </trkpt>
      <trkpt lat="42.55659" lon="2.0562">
        <ele>1875</ele>
      </trkpt>
      <trkpt lat="42.55577" lon="2.05805">
        <ele>1873</ele>
      </trkpt>
      <trkpt lat="42.55517" lon="2.05946">
        <ele>1880</ele>
      </trkpt>
      <trkpt lat="42.55495" lon="2.06028">
        <ele>1872</ele>
      </trkpt>
      <trkpt lat="42.55498" lon="2.06122">
        <ele>1869</ele>
      </trkpt>
      <trkpt lat="42.55527" lon="2.06178">
        <ele>1872</ele>
      </trkpt>
      <trkpt lat="42.55558" lon="2.06247">
        <ele>1873</ele>
      </trkpt>
      <trkpt lat="42.55584" lon="2.06298">
        <ele>1875</ele>
      </trkpt>
      <trkpt lat="42.55621" lon="2.06337">
        <ele>1868</ele>
      </trkpt>
      <trkpt lat="42.55621" lon="2.06414">
        <ele>1863</ele>
      </trkpt>
      <trkpt lat="42.55599" lon="2.06474">
        <ele>1851</ele>
      </trkpt>
      <trkpt lat="42.55637" lon="2.06487">
        <ele>1851</ele>
      </trkpt>
      <trkpt lat="42.55704" lon="2.0647">
        <ele>1853</ele>
      </trkpt>
      <trkpt lat="42.55767" lon="2.06474">
        <ele>1853</ele>
      </trkpt>
      <trkpt lat="42.55783" lon="2.06534">
        <ele>1842</ele>
      </trkpt>
      <trkpt lat="42.55824" lon="2.06539">
        <ele>1843</ele>
      </trkpt>
      <trkpt lat="42.55859" lon="2.06513">
        <ele>1841</ele>
      </trkpt>
      <trkpt lat="42.55878" lon="2.06487">
        <ele>1851</ele>
      </trkpt>
      <trkpt lat="42.55934" lon="2.06483">
        <ele>1842</ele>
      </trkpt>
      <trkpt lat="42.55994" lon="2.06466">
        <ele>1839</ele>
      </trkpt>
      <trkpt lat="42.56013" lon="2.0641">
        <ele>1844</ele>
      </trkpt>
      <trkpt lat="42.56067" lon="2.06367">
        <ele>1843</ele>
      </trkpt>
      <trkpt lat="42.5613" lon="2.06354">
        <ele>1830</ele>
      </trkpt>
      <trkpt lat="42.56168" lon="2.06376">
        <ele>1822</ele>
      </trkpt>
      <trkpt lat="42.56187" lon="2.06406">
        <ele>1820</ele>
      </trkpt>
      <trkpt lat="42.56238" lon="2.06431">
        <ele>1813</ele>
      </trkpt>
      <trkpt lat="42.56263" lon="2.0644">
        <ele>1810</ele>
      </trkpt>
      <trkpt lat="42.56263" lon="2.06491">
        <ele>1806</ele>
      </trkpt>
      <trkpt lat="42.5632" lon="2.06534">
        <ele>1800</ele>
      </trkpt>
      <trkpt lat="42.56327" lon="2.06671">
        <ele>1798</ele>
      </trkpt>
      <trkpt lat="42.56313" lon="2.06735">
        <ele>1796</ele>
      </trkpt>
      <trkpt lat="42.56273" lon="2.06812">
        <ele>1791</ele>
      </trkpt>
      <trkpt lat="42.56273" lon="2.06868">
        <ele>1788</ele>
      </trkpt>
      <trkpt lat="42.56291" lon="2.06941">
        <ele>1780</ele>
      </trkpt>
      <trkpt lat="42.56341" lon="2.0696">
        <ele>1781</ele>
      </trkpt>
      <trkpt lat="42.56409" lon="2.06945">
        <ele>1782</ele>
      </trkpt>
      <trkpt lat="42.56487" lon="2.06956">
        <ele>1778</ele>
      </trkpt>
      <trkpt lat="42.56561" lon="2.06984">
        <ele>1776</ele>
      </trkpt>
      <trkpt lat="42.56697" lon="2.07033">
        <ele>1753</ele>
      </trkpt>
      <trkpt lat="42.56758" lon="2.07025">
        <ele>1748</ele>
      </trkpt>
      <trkpt lat="42.56858" lon="2.06977">
        <ele>1748</ele>
      </trkpt>
      <trkpt lat="42.56905" lon="2.06973">
        <ele>1744</ele>
      </trkpt>
      <trkpt lat="42.5694" lon="2.06965">
        <ele>1738</ele>
      </trkpt>
      <trkpt lat="42.57011" lon="2.06997">
        <ele>1726</ele>
      </trkpt>
      <trkpt lat="42.57071" lon="2.06986">
        <ele>1721</ele>
      </trkpt>
      <trkpt lat="42.57122" lon="2.06986">
        <ele>1708</ele>
      </trkpt>
      <trkpt lat="42.57161" lon="2.07003">
        <ele>1695</ele>
      </trkpt>
      <trkpt lat="42.57207" lon="2.07029">
        <ele>1683</ele>
      </trkpt>
      <trkpt lat="42.57259" lon="2.07059">
        <ele>1669</ele>
      </trkpt>
      <trkpt lat="42.57269" lon="2.07078">
        <ele>1668</ele>
      </trkpt>
      <trkpt lat="42.57316" lon="2.07029">
        <ele>1667</ele>
      </trkpt>
      <trkpt lat="42.5737" lon="2.07007">
        <ele>1660</ele>
      </trkpt>
      <trkpt lat="42.57433" lon="2.06995">
        <ele>1662</ele>
      </trkpt>
      <trkpt lat="42.57484" lon="2.06939">
        <ele>1662</ele>
      </trkpt>
      <trkpt lat="42.57501" lon="2.06943">
        <ele>1660</ele>
      </trkpt>
      <trkpt lat="42.57536" lon="2.06928">
        <ele>1660</ele>
      </trkpt>
      <trkpt lat="42.57574" lon="2.06926">
        <ele>1661</ele>
      </trkpt>
      <trkpt lat="42.57594" lon="2.06954">
        <ele>1661</ele>
      </trkpt>
      <trkpt lat="42.57624" lon="2.06997">
        <ele>1661</ele>
      </trkpt>
      <trkpt lat="42.57662" lon="2.07063">
        <ele>1657</ele>
      </trkpt>
      <trkpt lat="42.57697" lon="2.07108">
        <ele>1659</ele>
      </trkpt>
      <trkpt lat="42.57719" lon="2.07136">
        <ele>1659</ele>
      </trkpt>
      <trkpt lat="42.57737" lon="2.07185">
        <ele>1658</ele>
      </trkpt>
    </trkseg>
  </trk>
</gpx>